NOAA Web Site Link Tides and Currents Home Page Transparent placeholder image

PORTS® Data Listing: 8531680 Sandy Hook, NJ

CO-OPS RAW PORTS DATA

************************      PRELIMINARY DATA      ************************** 

     THIS RAW DATA HAS NOT BEEN SUBJECT TO THE NATIONAL OCEAN SERVICE'S        
     QUALITY CONTROL OR QUALITY ASSURANCE PROCEDURES AND DOES NOT MEET         
     THE CRITERIA AND STANDARDS OF OFFICIAL NATIONAL OCEAN SERVICE             
     DATA.  IT IS RELEASED FOR LIMITED PUBLIC USE AS PRELIMINARY DATA TO       
     BE USED ONLY WITH APPROPRIATE CAUTION.                                    

************************      PRELIMINARY DATA      ************************** 


       CD   -   Calendar date
       T    -   Time
       TZ   -   Timezone
       PW   -   Predicted water level (feet above MLLW)
       OW   -   Observed water level (feet above MLLW)
       WS   -   Wind speed (knots)
       WD   -   Wind direction (degrees true)
       WG   -   Wind gust (knots)
       AT   -   Air temperature (degrees farenheit)
       WT   -   Water temperature (degrees farenheit)
       AP   -   Air pressure (millibars)
       SA   -   Salinty (PSU - Practical Salinity Units)
       SG   -   Specific gravity
       RH   -   Relative humidity
       AG   -   Air gap (feet)
       VI   -   Visibility (nautical miles)

       ** NOTE **
       A variable that has its data fields filled with "9"s, indicates that
       data was not collected for that sample period.
       **********


STATION NAME: Sandy Hook (8531680)
****************************************************************************************************
    CD       T    TZ    PW     OW    WS   WD   WG    AT    WT    AP    SA    SG     RH    AG   VI
****************************************************************************************************
2019/08/17 17:00 EDT    0.91   1.54    9  132   14  75.7  76.3 1014.7 -9.9 -9.999 -99.9 -99.99 -9.99
2019/08/17 17:06 EDT    0.99   1.61    9  139   13  75.0  77.2 1014.7 -9.9 -9.999 -99.9 -99.99 -9.99
2019/08/17 17:12 EDT    1.07   1.69    9  147   11  74.8  77.5 1014.7 -9.9 -9.999 -99.9 -99.99 -9.99
2019/08/17 17:18 EDT    1.16   1.77    9  128   11  75.2  77.7 1014.8 -9.9 -9.999 -99.9 -99.99 -9.99
2019/08/17 17:24 EDT    1.26   1.85    9  136   12  75.2  77.7 1014.8 -9.9 -9.999 -99.9 -99.99 -9.99
2019/08/17 17:30 EDT    1.36   1.96   10  148   11  75.4  77.5 1014.8 -9.9 -9.999 -99.9 -99.99 -9.99
2019/08/17 17:36 EDT    1.46   2.06    7  144   11  74.8  77.7 1014.9 -9.9 -9.999 -99.9 -99.99 -9.99
2019/08/17 17:42 EDT    1.57   2.18    6  139   10  75.0  77.9 1014.9 -9.9 -9.999 -99.9 -99.99 -9.99
2019/08/17 17:48 EDT    1.68   2.28    7  147   10  75.2  78.6 1015.0 -9.9 -9.999 -99.9 -99.99 -9.99
2019/08/17 17:54 EDT    1.80   2.42    7  148    9  75.0  79.0 1014.9 -9.9 -9.999 -99.9 -99.99 -9.99
2019/08/17 18:00 EDT    1.92   2.54    9  155   11  75.4  78.6 1014.8 -9.9 -9.999 -99.9 -99.99 -9.99
2019/08/17 18:06 EDT    2.04   2.67    9  143   11  74.7  78.6 1014.8 -9.9 -9.999 -99.9 -99.99 -9.99
2019/08/17 18:12 EDT    2.17   2.77    9  137   11  74.7  78.1 1014.8 -9.9 -9.999 -99.9 -99.99 -9.99
2019/08/17 18:18 EDT    2.29   2.93    9  151   12  74.7  78.6 1014.8 -9.9 -9.999 -99.9 -99.99 -9.99
2019/08/17 18:24 EDT    2.42   3.03    8  146   12  74.7  78.8 1014.7 -9.9 -9.999 -99.9 -99.99 -9.99
2019/08/17 18:30 EDT    2.54   3.15    9  147   11  74.5  78.6 1014.6 -9.9 -9.999 -99.9 -99.99 -9.99
2019/08/17 18:36 EDT    2.67   3.30    9  153   11  74.5  78.4 1014.5 -9.9 -9.999 -99.9 -99.99 -9.99
2019/08/17 18:42 EDT    2.79   3.45    9  152   13  74.1  78.4 1014.6 -9.9 -9.999 -99.9 -99.99 -9.99
2019/08/17 18:48 EDT    2.92   3.56    7  139   10  73.8  78.4 1014.6 -9.9 -9.999 -99.9 -99.99 -9.99
2019/08/17 18:54 EDT    3.04   3.69    8  146   11  73.8  78.6 1014.6 -9.9 -9.999 -99.9 -99.99 -9.99
2019/08/17 19:00 EDT    3.16   3.85    6  154   11  73.8  78.4 1014.6 -9.9 -9.999 -99.9 -99.99 -9.99
2019/08/17 19:06 EDT    3.28   3.99    8  161   11  73.9  78.4 1014.7 -9.9 -9.999 -99.9 -99.99 -9.99
2019/08/17 19:12 EDT    3.40   4.13   10  168   11  73.9  78.4 1014.8 -9.9 -9.999 -99.9 -99.99 -9.99
2019/08/17 19:18 EDT    3.51   4.24    9  160   11  74.1  78.4 1014.7 -9.9 -9.999 -99.9 -99.99 -9.99
2019/08/17 19:24 EDT    3.62   4.37    9  163   11  74.1  77.7 1014.7 -9.9 -9.999 -99.9 -99.99 -9.99
2019/08/17 19:30 EDT    3.73   4.52    6  154   10  74.1  77.7 1014.7 -9.9 -9.999 -99.9 -99.99 -9.99
2019/08/17 19:36 EDT    3.83   4.61    5  153    8  74.3  76.6 1014.9 -9.9 -9.999 -99.9 -99.99 -9.99
2019/08/17 19:42 EDT    3.93   4.76    5  167    6  74.3  77.5 1015.0 -9.9 -9.999 -99.9 -99.99 -9.99
2019/08/17 19:48 EDT    4.03   4.84    4  128    5  74.5  76.5 1015.0 -9.9 -9.999 -99.9 -99.99 -9.99
2019/08/17 19:54 EDT    4.13   4.93    4  122    5  74.3  77.4 1015.0 -9.9 -9.999 -99.9 -99.99 -9.99
2019/08/17 20:00 EDT    4.22   5.03    4  112    5  74.3  76.5 1015.0 -9.9 -9.999 -99.9 -99.99 -9.99
2019/08/17 20:06 EDT    4.31   5.14    3  110    5  74.3  75.7 1014.9 -9.9 -9.999 -99.9 -99.99 -9.99
2019/08/17 20:12 EDT    4.39   5.20    4  115    6  74.3  75.7 1014.9 -9.9 -9.999 -99.9 -99.99 -9.99
2019/08/17 20:18 EDT    4.47   5.28    1  114    4  74.3  75.4 1014.8 -9.9 -9.999 -99.9 -99.99 -9.99
2019/08/17 20:24 EDT    4.55   5.37    2  100    4  74.5  75.4 1015.0 -9.9 -9.999 -99.9 -99.99 -9.99
2019/08/17 20:30 EDT    4.62   5.43    2   85    3  74.5  75.2 1015.1 -9.9 -9.999 -99.9 -99.99 -9.99
2019/08/17 20:36 EDT    4.69   5.50    3   88    4  74.5  75.7 1015.1 -9.9 -9.999 -99.9 -99.99 -9.99
2019/08/17 20:42 EDT    4.76   5.56    4   84    5  74.7  76.3 1015.2 -9.9 -9.999 -99.9 -99.99 -9.99
2019/08/17 20:48 EDT    4.82   5.61    4  114    5  74.7  76.1 1015.2 -9.9 -9.999 -99.9 -99.99 -9.99
2019/08/17 20:54 EDT    4.87   5.63    6  116    7  74.7  75.9 1015.2 -9.9 -9.999 -99.9 -99.99 -9.99
2019/08/17 21:00 EDT    4.93   5.70    5  126    7  74.7  75.9 1015.1 -9.9 -9.999 -99.9 -99.99 -9.99
2019/08/17 21:06 EDT    4.98   5.72    6  130    7  74.8  75.7 1015.2 -9.9 -9.999 -99.9 -99.99 -9.99
2019/08/17 21:12 EDT    5.02   5.72    6  139    9  74.7  75.7 1015.3 -9.9 -9.999 -99.9 -99.99 -9.99
2019/08/17 21:18 EDT    5.06   5.73    6  137    8  74.7  75.7 1015.3 -9.9 -9.999 -99.9 -99.99 -9.99
2019/08/17 21:24 EDT    5.10   5.78    4  131    7  74.7  75.9 1015.4 -9.9 -9.999 -99.9 -99.99 -9.99
2019/08/17 21:30 EDT    5.13   5.78    3  127    5  74.7  75.7 1015.5 -9.9 -9.999 -99.9 -99.99 -9.99
2019/08/17 21:36 EDT    5.16   5.78    4  135    6  74.7  75.6 1015.6 -9.9 -9.999 -99.9 -99.99 -9.99
2019/08/17 21:42 EDT    5.18   5.82    4  135    6  74.7  75.6 1015.7 -9.9 -9.999 -99.9 -99.99 -9.99
2019/08/17 21:48 EDT    5.20   5.82    4  139    7  74.7  75.6 1015.6 -9.9 -9.999 -99.9 -99.99 -9.99
2019/08/17 21:54 EDT    5.21   5.79    4  116    6  74.8  75.6 1015.7 -9.9 -9.999 -99.9 -99.99 -9.99
2019/08/17 22:00 EDT    5.21   5.79    5  115    6  74.8  75.6 1015.7 -9.9 -9.999 -99.9 -99.99 -9.99
2019/08/17 22:06 EDT    5.21   5.78    5  133    7  74.7  75.4 1015.6 -9.9 -9.999 -99.9 -99.99 -9.99
2019/08/17 22:12 EDT    5.21   5.74    5  132    6  74.8  75.4 1015.5 -9.9 -9.999 -99.9 -99.99 -9.99
2019/08/17 22:18 EDT    5.19   5.71    4  131    7  74.8  75.4 1015.6 -9.9 -9.999 -99.9 -99.99 -9.99
2019/08/17 22:24 EDT    5.17   5.70    4  135    6  74.8  75.2 1015.7 -9.9 -9.999 -99.9 -99.99 -9.99
2019/08/17 22:30 EDT    5.15   5.65    6  135    8  74.8  75.2 1015.6 -9.9 -9.999 -99.9 -99.99 -9.99
2019/08/17 22:36 EDT    5.12   5.60    6  144    8  74.8  75.4 1015.5 -9.9 -9.999 -99.9 -99.99 -9.99
2019/08/17 22:42 EDT    5.08   5.57    6  144    9  74.8  75.4 1015.5 -9.9 -9.999 -99.9 -99.99 -9.99
2019/08/17 22:48 EDT    5.03   5.53    6  141    8  74.8  75.6 1015.4 -9.9 -9.999 -99.9 -99.99 -9.99
2019/08/17 22:54 EDT    4.98   5.46    4  139    7  75.0  75.7 1015.4 -9.9 -9.999 -99.9 -99.99 -9.99
2019/08/17 23:00 EDT    4.93   5.46    4  144    5  75.0  75.7 1015.4 -9.9 -9.999 -99.9 -99.99 -9.99
2019/08/17 23:06 EDT    4.87   5.42    3  129    4  75.0  75.7 1015.5 -9.9 -9.999 -99.9 -99.99 -9.99
2019/08/17 23:12 EDT    4.80   5.34    4   98    4  75.0  75.7 1015.5 -9.9 -9.999 -99.9 -99.99 -9.99
2019/08/17 23:18 EDT    4.72   5.28    4  101    5  74.8  75.6 1015.5 -9.9 -9.999 -99.9 -99.99 -9.99
2019/08/17 23:24 EDT    4.64   5.23    4  100    4  74.8  75.6 1015.7 -9.9 -9.999 -99.9 -99.99 -9.99
2019/08/17 23:30 EDT    4.56   5.13    4  104    5  74.7  75.6 1015.6 -9.9 -9.999 -99.9 -99.99 -9.99
2019/08/17 23:36 EDT    4.47   5.05    5  129    6  74.7  75.7 1015.6 -9.9 -9.999 -99.9 -99.99 -9.99
2019/08/17 23:42 EDT    4.38   4.96    6  149    6  74.7  75.9 1015.6 -9.9 -9.999 -99.9 -99.99 -9.99
2019/08/17 23:48 EDT    4.28   4.84    6  155    7  74.8  75.9 1015.5 -9.9 -9.999 -99.9 -99.99 -9.99
2019/08/17 23:54 EDT    4.18   4.72    6  159    7  74.8  76.1 1015.4 -9.9 -9.999 -99.9 -99.99 -9.99
2019/08/18 00:00 EDT    4.07   4.64    6  159    7  74.8  76.1 1015.4 -9.9 -9.999 -99.9 -99.99 -9.99
2019/08/18 00:06 EDT    3.96   4.51    5  149    7  74.8  76.1 1015.2 -9.9 -9.999 -99.9 -99.99 -9.99
2019/08/18 00:12 EDT    3.85   4.41    5  149    7  75.0  76.1 1015.2 -9.9 -9.999 -99.9 -99.99 -9.99
2019/08/18 00:18 EDT    3.74   4.32    3  150    6  75.0  76.3 1015.2 -9.9 -9.999 -99.9 -99.99 -9.99
2019/08/18 00:24 EDT    3.62   4.23    3  102    4  75.0  76.3 1015.3 -9.9 -9.999 -99.9 -99.99 -9.99
2019/08/18 00:30 EDT    3.51   4.13    4   90    4  74.8  76.3 1015.3 -9.9 -9.999 -99.9 -99.99 -9.99
2019/08/18 00:36 EDT    3.39   4.03    5   95    5  74.5  76.3 1015.3 -9.9 -9.999 -99.9 -99.99 -9.99
2019/08/18 00:42 EDT    3.27   3.93    4   90    6  74.3  76.3 1015.3 -9.9 -9.999 -99.9 -99.99 -9.99
2019/08/18 00:48 EDT    3.15   3.82    4  103    6  74.3  76.3 1015.4 -9.9 -9.999 -99.9 -99.99 -9.99
2019/08/18 00:54 EDT    3.03   3.68    3  105    4  74.3  76.3 1015.4 -9.9 -9.999 -99.9 -99.99 -9.99
2019/08/18 01:00 EDT    2.91   3.61    4  105    5  74.5  76.3 1015.4 -9.9 -9.999 -99.9 -99.99 -9.99
2019/08/18 01:06 EDT    2.79   3.48    4  106    6  74.5  76.3 1015.4 -9.9 -9.999 -99.9 -99.99 -9.99
2019/08/18 01:12 EDT    2.68   3.38    3  131    5  74.7  76.3 1015.5 -9.9 -9.999 -99.9 -99.99 -9.99
2019/08/18 01:18 EDT    2.56   3.28    2  127    3  74.7  76.3 1015.5 -9.9 -9.999 -99.9 -99.99 -9.99
2019/08/18 01:24 EDT    2.44   3.20    2   74    2  74.8  76.3 1015.5 -9.9 -9.999 -99.9 -99.99 -9.99
2019/08/18 01:30 EDT    2.33   3.09    2   85    3  74.7  76.5 1015.6 -9.9 -9.999 -99.9 -99.99 -9.99
2019/08/18 01:36 EDT    2.21   3.02    1  104    3  74.7  76.5 1015.6 -9.9 -9.999 -99.9 -99.99 -9.99
2019/08/18 01:42 EDT    2.10   2.95    0  117    1  74.7  76.5 1015.6 -9.9 -9.999 -99.9 -99.99 -9.99
2019/08/18 01:48 EDT    1.99   2.81    1  214    2  74.8  76.5 1015.6 -9.9 -9.999 -99.9 -99.99 -9.99
2019/08/18 01:54 EDT    1.88   2.75    0  298    2  75.0  76.5 1015.6 -9.9 -9.999 -99.9 -99.99 -9.99
2019/08/18 02:00 EDT    1.78   2.66    1   26    1  75.0  76.5 1015.6 -9.9 -9.999 -99.9 -99.99 -9.99
2019/08/18 02:06 EDT    1.67   2.55    1   62    1  74.7  76.5 1015.6 -9.9 -9.999 -99.9 -99.99 -9.99
2019/08/18 02:12 EDT    1.57   2.45    1   89    2  74.7  76.5 1015.5 -9.9 -9.999 -99.9 -99.99 -9.99
2019/08/18 02:18 EDT    1.47   2.34    1  140    1  74.5  76.5 1015.4 -9.9 -9.999 -99.9 -99.99 -9.99
2019/08/18 02:24 EDT    1.37   2.28    3  210    4  74.5  76.5 1015.4 -9.9 -9.999 -99.9 -99.99 -9.99
2019/08/18 02:30 EDT    1.28   2.15    3  212    4  75.0  76.5 1015.4 -9.9 -9.999 -99.9 -99.99 -9.99
2019/08/18 02:36 EDT    1.19   2.09    2  254    3  75.2  76.5 1015.5 -9.9 -9.999 -99.9 -99.99 -9.99
2019/08/18 02:42 EDT    1.10   1.98    3  243    3  75.2  76.5 1015.6 -9.9 -9.999 -99.9 -99.99 -9.99
2019/08/18 02:48 EDT    1.01   1.91    1  258    3  75.2  76.5 1015.6 -9.9 -9.999 -99.9 -99.99 -9.99
2019/08/18 02:54 EDT    0.93   1.81    0   81    1  75.2  76.5 1015.6 -9.9 -9.999 -99.9 -99.99 -9.99
2019/08/18 03:00 EDT    0.85   1.74    1  125    2  74.5  76.5 1015.6 -9.9 -9.999 -99.9 -99.99 -9.99
2019/08/18 03:06 EDT    0.77   1.66    1  130    2  74.8  76.5 1015.7 -9.9 -9.999 -99.9 -99.99 -9.99
2019/08/18 03:12 EDT    0.70   1.57    2  143    2  74.7  76.5 1015.7 -9.9 -9.999 -99.9 -99.99 -9.99
2019/08/18 03:18 EDT    0.63   1.47    1   82    2  74.8  76.5 1015.7 -9.9 -9.999 -99.9 -99.99 -9.99
2019/08/18 03:24 EDT    0.56   1.39    2   50    2  74.8  76.5 1015.7 -9.9 -9.999 -99.9 -99.99 -9.99
2019/08/18 03:30 EDT    0.50   1.32    2   71    2  74.8  76.5 1015.6 -9.9 -9.999 -99.9 -99.99 -9.99
2019/08/18 03:36 EDT    0.45   1.24    2   69    2  74.8  76.5 1015.6 -9.9 -9.999 -99.9 -99.99 -9.99
2019/08/18 03:42 EDT    0.40   1.19    2   41    3  74.8  76.5 1015.6 -9.9 -9.999 -99.9 -99.99 -9.99
2019/08/18 03:48 EDT    0.35   1.14    2   45    4  74.7  76.3 1015.6 -9.9 -9.999 -99.9 -99.99 -9.99
2019/08/18 03:54 EDT    0.32   1.10    2   55    3  74.7  76.3 1015.5 -9.9 -9.999 -99.9 -99.99 -9.99
2019/08/18 04:00 EDT    0.28   1.05    1   82    2  74.5  76.1 1015.5 -9.9 -9.999 -99.9 -99.99 -9.99
2019/08/18 04:06 EDT    0.26   1.00    2   88    3  74.3  76.1 1015.4 -9.9 -9.999 -99.9 -99.99 -9.99
2019/08/18 04:12 EDT    0.24   0.96    2  114    2  74.5  76.1 1015.5 -9.9 -9.999 -99.9 -99.99 -9.99
2019/08/18 04:18 EDT    0.23   0.93    1  120    2  74.5  76.1 1015.5 -9.9 -9.999 -99.9 -99.99 -9.99
2019/08/18 04:24 EDT    0.22   0.92    2  132    2  74.5  76.3 1015.5 -9.9 -9.999 -99.9 -99.99 -9.99
2019/08/18 04:30 EDT    0.23   0.89    2  154    2  74.5  76.3 1015.6 -9.9 -9.999 -99.9 -99.99 -9.99
2019/08/18 04:36 EDT    0.24   0.87    2  158    3  74.8  76.3 1015.5 -9.9 -9.999 -99.9 -99.99 -9.99
2019/08/18 04:42 EDT    0.26   0.88    2  138    3  74.8  76.1 1015.4 -9.9 -9.999 -99.9 -99.99 -9.99
2019/08/18 04:48 EDT    0.28   0.88    2  140    3  74.7  76.1 1015.5 -9.9 -9.999 -99.9 -99.99 -9.99
2019/08/18 04:54 EDT    0.32   0.92    2  143    3  74.7  76.1 1015.6 -9.9 -9.999 -99.9 -99.99 -9.99
2019/08/18 05:00 EDT    0.36   0.94    3  137    3  74.5  75.7 1015.8 -9.9 -9.999 -99.9 -99.99 -9.99
2019/08/18 05:06 EDT    0.41   1.01    2  132    3  74.5  75.7 1015.8 -9.9 -9.999 -99.9 -99.99 -9.99
2019/08/18 05:12 EDT    0.46   1.06    3  146    4  74.3  75.7 1015.8 -9.9 -9.999 -99.9 -99.99 -9.99
2019/08/18 05:18 EDT    0.53   1.16    3  145    3  74.3  75.6 1015.9 -9.9 -9.999 -99.9 -99.99 -9.99
2019/08/18 05:24 EDT    0.60   1.23    4  141    4  74.3  75.6 1015.9 -9.9 -9.999 -99.9 -99.99 -9.99
2019/08/18 05:30 EDT    0.68   1.30    3  144    4  74.5  75.7 1016.0 -9.9 -9.999 -99.9 -99.99 -9.99
2019/08/18 05:36 EDT    0.76   1.41    4  157    5  74.7  75.7 1016.0 -9.9 -9.999 -99.9 -99.99 -9.99
2019/08/18 05:42 EDT    0.85   1.50    5  165    6  74.7  75.6 1016.0 -9.9 -9.999 -99.9 -99.99 -9.99
2019/08/18 05:48 EDT    0.95   1.62    3  155    6  74.7  75.6 1016.0 -9.9 -9.999 -99.9 -99.99 -9.99
2019/08/18 05:54 EDT    1.05   1.65    2  145    4  74.5  75.6 1016.1 -9.9 -9.999 -99.9 -99.99 -9.99
2019/08/18 06:00 EDT    1.15   1.82    3  144    4  74.5  75.6 1016.1 -9.9 -9.999 -99.9 -99.99 -9.99
2019/08/18 06:06 EDT    1.26   1.93    2   97    3  74.5  75.6 1016.1 -9.9 -9.999 -99.9 -99.99 -9.99
2019/08/18 06:12 EDT    1.38   2.01    1   82    2  74.3  75.6 1016.1 -9.9 -9.999 -99.9 -99.99 -9.99
2019/08/18 06:18 EDT    1.49   2.14    1   94    2  74.1  75.4 1016.1 -9.9 -9.999 -99.9 -99.99 -9.99
2019/08/18 06:24 EDT    1.61   2.29    1   73    1  74.1  75.6 1016.1 -9.9 -9.999 -99.9 -99.99 -9.99
2019/08/18 06:30 EDT    1.73   2.38    1   96    2  74.1  75.7 1016.1 -9.9 -9.999 -99.9 -99.99 -9.99
2019/08/18 06:36 EDT    1.86   2.50    3  113    3  74.1  75.7 1016.1 -9.9 -9.999 -99.9 -99.99 -9.99
2019/08/18 06:42 EDT    1.98   2.64    2  120    3  73.9  75.9 1016.1 -9.9 -9.999 -99.9 -99.99 -9.99
2019/08/18 06:48 EDT    2.10   2.76    2  140    2  74.1  76.1 1016.2 -9.9 -9.999 -99.9 -99.99 -9.99
2019/08/18 06:54 EDT    2.23   2.85    2  125    3  74.3  76.1 1016.2 -9.9 -9.999 -99.9 -99.99 -9.99
2019/08/18 07:00 EDT    2.35   3.01    3  142    3  74.5  75.9 1016.2 -9.9 -9.999 -99.9 -99.99 -9.99
2019/08/18 07:06 EDT    2.47   3.11    3  148    4  74.5  75.9 1016.3 -9.9 -9.999 -99.9 -99.99 -9.99
2019/08/18 07:12 EDT    2.59   3.26    2  141    3  74.7  75.7 1016.4 -9.9 -9.999 -99.9 -99.99 -9.99
2019/08/18 07:18 EDT    2.71   3.33    4  146    4  74.7  75.7 1016.5 -9.9 -9.999 -99.9 -99.99 -9.99
2019/08/18 07:24 EDT    2.82   3.45    6  155    7  74.7  75.7 1016.7 -9.9 -9.999 -99.9 -99.99 -9.99
2019/08/18 07:30 EDT    2.94   3.59    6  162    8  74.7  75.9 1016.9 -9.9 -9.999 -99.9 -99.99 -9.99
2019/08/18 07:36 EDT    3.05   3.67    7  160    9  74.7  76.1 1017.0 -9.9 -9.999 -99.9 -99.99 -9.99
2019/08/18 07:42 EDT    3.16   3.75    5  191   10  75.0  75.9 1017.2 -9.9 -9.999 -99.9 -99.99 -9.99
2019/08/18 07:48 EDT    3.26   3.86    5  200    6  75.0  75.9 1017.3 -9.9 -9.999 -99.9 -99.99 -9.99
2019/08/18 07:54 EDT    3.36   3.97    3  201    6  75.0  75.9 1017.4 -9.9 -9.999 -99.9 -99.99 -9.99
2019/08/18 08:00 EDT    3.46   4.02    4  183    5  75.0  75.7 1017.3 -9.9 -9.999 -99.9 -99.99 -9.99
2019/08/18 08:06 EDT    3.56   4.11    4  193    4  75.2  75.7 1017.3 -9.9 -9.999 -99.9 -99.99 -9.99
2019/08/18 08:12 EDT    3.65   4.23    3  203    4  75.2  75.7 1017.3 -9.9 -9.999 -99.9 -99.99 -9.99
2019/08/18 08:18 EDT    3.74   4.27    4  176    5  75.4  75.7 1017.2 -9.9 -9.999 -99.9 -99.99 -9.99
2019/08/18 08:24 EDT    3.82   4.32    4  176    5  75.4  75.9 1017.2 -9.9 -9.999 -99.9 -99.99 -9.99
2019/08/18 08:30 EDT    3.90   4.45    4  177    5  75.6  75.7 1017.2 -9.9 -9.999 -99.9 -99.99 -9.99
2019/08/18 08:36 EDT    3.98   4.50    3  162    4  75.6  75.7 1017.1 -9.9 -9.999 -99.9 -99.99 -9.99
2019/08/18 08:42 EDT    4.05   4.54    2  164    3  75.7  75.9 1016.9 -9.9 -9.999 -99.9 -99.99 -9.99
2019/08/18 08:48 EDT    4.12   4.63    4  179    5  76.3  75.9 1016.9 -9.9 -9.999 -99.9 -99.99 -9.99
2019/08/18 08:54 EDT    4.19   4.71    5  182    6  76.3  75.9 1016.9 -9.9 -9.999 -99.9 -99.99 -9.99
2019/08/18 09:00 EDT    4.25   4.74    4  181    5  76.5  75.9 1016.9 -9.9 -9.999 -99.9 -99.99 -9.99
2019/08/18 09:06 EDT    4.31   4.80    3  180    4  76.6  75.9 1016.9 -9.9 -9.999 -99.9 -99.99 -9.99
2019/08/18 09:12 EDT    4.37   4.88    4  191    4  76.8  75.9 1016.8 -9.9 -9.999 -99.9 -99.99 -9.99
2019/08/18 09:18 EDT    4.42   4.90    3  200    4  76.8  75.9 1016.8 -9.9 -9.999 -99.9 -99.99 -9.99
2019/08/18 09:24 EDT    4.47   4.93    3  199    4  77.4  75.9 1016.8 -9.9 -9.999 -99.9 -99.99 -9.99
2019/08/18 09:30 EDT    4.52   4.99    3  220    4  77.4  75.9 1016.7 -9.9 -9.999 -99.9 -99.99 -9.99
2019/08/18 09:36 EDT    4.56   5.04    3  207    3  77.5  75.9 1016.7 -9.9 -9.999 -99.9 -99.99 -9.99
2019/08/18 09:42 EDT    4.60   5.05    2  204    3  77.7  75.9 1016.6 -9.9 -9.999 -99.9 -99.99 -9.99
2019/08/18 09:48 EDT    4.63   5.08    4  209    4  77.7  75.9 1016.6 -9.9 -9.999 -99.9 -99.99 -9.99
2019/08/18 09:54 EDT    4.66   5.14    3  202    4  77.7  75.9 1016.7 -9.9 -9.999 -99.9 -99.99 -9.99
2019/08/18 10:00 EDT    4.69   5.16    3  214    4  78.1  75.9 1016.6 -9.9 -9.999 -99.9 -99.99 -9.99
2019/08/18 10:06 EDT    4.71   5.16    1  239    2  78.3  75.9 1016.7 -9.9 -9.999 -99.9 -99.99 -9.99
2019/08/18 10:12 EDT    4.72   5.20    1  237    2  79.5  75.9 1016.7 -9.9 -9.999 -99.9 -99.99 -9.99
2019/08/18 10:18 EDT    4.74   5.21    4  184    5  79.5  75.9 1016.8 -9.9 -9.999 -99.9 -99.99 -9.99
2019/08/18 10:24 EDT    4.74   5.21    5  178    5  79.0  75.9 1016.8 -9.9 -9.999 -99.9 -99.99 -9.99
2019/08/18 10:30 EDT    4.74   5.22    3  175    4  79.0  75.9 1017.0 -9.9 -9.999 -99.9 -99.99 -9.99
2019/08/18 10:36 EDT    4.74   5.22    0  149    3  79.3  75.9 1016.9 -9.9 -9.999 -99.9 -99.99 -9.99
2019/08/18 10:42 EDT    4.73   5.22    4   87    5  81.0  75.9 1016.9 -9.9 -9.999 -99.9 -99.99 -9.99
2019/08/18 10:48 EDT    4.72   5.21    2  107    5  79.7  75.9 1016.9 -9.9 -9.999 -99.9 -99.99 -9.99
2019/08/18 10:54 EDT    4.70   5.21    2  162    4  80.8  75.9 1016.9 -9.9 -9.999 -99.9 -99.99 -9.99
2019/08/18 11:00 EDT    4.67   5.18    1  278    4  81.3  75.9 1016.8 -9.9 -9.999 -99.9 -99.99 -9.99
2019/08/18 11:06 EDT    4.64   5.17    1  222    2  80.4  75.7 1016.8 -9.9 -9.999 -99.9 -99.99 -9.99
2019/08/18 11:12 EDT    4.60   5.15    5  109    6  80.2  75.7 1016.7 -9.9 -9.999 -99.9 -99.99 -9.99
2019/08/18 11:18 EDT    4.56   5.11    7  103    9  80.6  75.7 1016.6 -9.9 -9.999 -99.9 -99.99 -9.99
2019/08/18 11:24 EDT    4.51   5.05    6  105    8  79.7  75.7 1016.7 -9.9 -9.999 -99.9 -99.99 -9.99
2019/08/18 11:30 EDT    4.46   5.01    5  110    8  80.1  75.7 1016.7 -9.9 -9.999 -99.9 -99.99 -9.99
2019/08/18 11:36 EDT    4.40   4.96    5  122    7  80.4  75.9 1016.7 -9.9 -9.999 -99.9 -99.99 -9.99
2019/08/18 11:42 EDT    4.34   4.90    4  102    7  80.8  75.9 1016.7 -9.9 -9.999 -99.9 -99.99 -9.99
2019/08/18 11:48 EDT    4.27   4.86    5   88    6  81.1  75.9 1016.7 -9.9 -9.999 -99.9 -99.99 -9.99
2019/08/18 11:54 EDT    4.20   4.78    6   99    7  81.3  76.1 1016.7 -9.9 -9.999 -99.9 -99.99 -9.99
2019/08/18 12:00 EDT    4.12   4.70    6  110    8  81.3  76.3 1016.7 -9.9 -9.999 -99.9 -99.99 -9.99
2019/08/18 12:06 EDT    4.04   4.65    6  105    8  81.3  76.5 1016.6 -9.9 -9.999 -99.9 -99.99 -9.99
2019/08/18 12:12 EDT    3.95   4.55    6  105    8  81.7  76.6 1016.5 -9.9 -9.999 -99.9 -99.99 -9.99
2019/08/18 12:18 EDT    3.86   4.48    6  137    7  81.5  76.5 1016.5 -9.9 -9.999 -99.9 -99.99 -9.99
2019/08/18 12:24 EDT    3.77   4.40    7  119    9  81.9  76.6 1016.5 -9.9 -9.999 -99.9 -99.99 -9.99
2019/08/18 12:30 EDT    3.68   4.28    8  141   10  81.5  77.0 1016.5 -9.9 -9.999 -99.9 -99.99 -9.99
2019/08/18 12:36 EDT    3.58   4.19    7  137   10  81.0  77.5 1016.4 -9.9 -9.999 -99.9 -99.99 -9.99
2019/08/18 12:42 EDT    3.49   4.10    8  114    9  81.0  77.7 1016.3 -9.9 -9.999 -99.9 -99.99 -9.99
2019/08/18 12:48 EDT    3.39   4.00    7  117   10  81.3  77.9 1016.3 -9.9 -9.999 -99.9 -99.99 -9.99
2019/08/18 12:54 EDT    3.28   3.92    7  124    9  81.5  78.3 1016.3 -9.9 -9.999 -99.9 -99.99 -9.99
2019/08/18 13:00 EDT    3.18   3.79    5  115    9  81.1  78.3 1016.3 -9.9 -9.999 -99.9 -99.99 -9.99
2019/08/18 13:06 EDT    3.08   3.71    5  129    8  81.9  78.1 1016.3 -9.9 -9.999 -99.9 -99.99 -9.99
2019/08/18 13:12 EDT    2.98   3.60    6  137    9  83.1  78.3 1016.3 -9.9 -9.999 -99.9 -99.99 -9.99
2019/08/18 13:18 EDT    2.88   3.52    5  102    7  83.5  78.4 1016.3 -9.9 -9.999 -99.9 -99.99 -9.99
2019/08/18 13:24 EDT    2.77   3.42    7  102    8  82.8  78.4 1016.3 -9.9 -9.999 -99.9 -99.99 -9.99
2019/08/18 13:30 EDT    2.67   3.33    5  105    8  82.4  78.4 1016.4 -9.9 -9.999 -99.9 -99.99 -9.99
2019/08/18 13:36 EDT    2.57   3.22    5   98    7  83.8  78.4 1016.4 -9.9 -9.999 -99.9 -99.99 -9.99
2019/08/18 13:42 EDT    2.47   3.11    6  125    8  83.8  78.4 1016.4 -9.9 -9.999 -99.9 -99.99 -9.99
2019/08/18 13:48 EDT    2.38   3.04    7  125   10  84.0  78.1 1016.4 -9.9 -9.999 -99.9 -99.99 -9.99
2019/08/18 13:54 EDT    2.28   2.94    8  134   10  83.8  77.7 1016.4 -9.9 -9.999 -99.9 -99.99 -9.99
2019/08/18 14:00 EDT    2.18   2.83    8  141    9  83.3  77.5 1016.4 -9.9 -9.999 -99.9 -99.99 -9.99
2019/08/18 14:06 EDT    2.09   2.74    9  140   12  82.6  77.2 1016.3 -9.9 -9.999 -99.9 -99.99 -9.99
2019/08/18 14:12 EDT    2.00   2.65    8  141   11  82.6  76.6 1016.2 -9.9 -9.999 -99.9 -99.99 -9.99
2019/08/18 14:18 EDT    1.91   2.58   10  155   13  82.8  76.1 1016.2 -9.9 -9.999 -99.9 -99.99 -9.99
2019/08/18 14:24 EDT    1.82   2.48   14  159   17  83.1  76.1 1016.1 -9.9 -9.999 -99.9 -99.99 -9.99
2019/08/18 14:30 EDT    1.74   2.39   13  160   17  82.4  75.9 1015.9 -9.9 -9.999 -99.9 -99.99 -9.99
2019/08/18 14:36 EDT    1.65   2.31   13  157   16  82.2  76.1 1015.9 -9.9 -9.999 -99.9 -99.99 -9.99
2019/08/18 14:42 EDT    1.57   2.23   14  166   17  82.6  76.1 1015.9 -9.9 -9.999 -99.9 -99.99 -9.99
2019/08/18 14:48 EDT    1.49   2.14   13  161   16  82.2  76.5 1015.8 -9.9 -9.999 -99.9 -99.99 -9.99
2019/08/18 14:54 EDT    1.42   2.07   11  158   15  82.8  77.0 1015.7 -9.9 -9.999 -99.9 -99.99 -9.99
2019/08/18 15:00 EDT    1.34   1.97   11  163   15  82.6  77.7 1015.5 -9.9 -9.999 -99.9 -99.99 -9.99
2019/08/18 15:06 EDT    1.27   1.89   14  164   17  82.6  77.7 1015.6 -9.9 -9.999 -99.9 -99.99 -9.99
2019/08/18 15:12 EDT    1.20   1.80   11  155   16  82.6  77.5 1015.5 -9.9 -9.999 -99.9 -99.99 -9.99
2019/08/18 15:18 EDT    1.14   1.74   12  158   15  82.6  77.5 1015.5 -9.9 -9.999 -99.9 -99.99 -9.99
2019/08/18 15:24 EDT    1.07   1.67   13  161   16  82.8  77.7 1015.3 -9.9 -9.999 -99.9 -99.99 -9.99
2019/08/18 15:30 EDT    1.02   1.58   15  163   18  82.4  77.9 1015.3 -9.9 -9.999 -99.9 -99.99 -9.99
2019/08/18 15:36 EDT    0.96   1.54   14  159   17  82.0  77.7 1015.1 -9.9 -9.999 -99.9 -99.99 -9.99
2019/08/18 15:42 EDT    0.91   1.49   12  160   18  82.0  77.9 1014.9 -9.9 -9.999 -99.9 -99.99 -9.99
2019/08/18 15:48 EDT    0.86   1.43   13  165   17  82.2  77.5 1015.0 -9.9 -9.999 -99.9 -99.99 -9.99
2019/08/18 15:54 EDT    0.82   1.39   13  168   16  82.0  77.9 1015.1 -9.9 -9.999 -99.9 -99.99 -9.99
2019/08/18 16:00 EDT    0.78   1.35   11  156   14  82.8  77.9 1015.2 -9.9 -9.999 -99.9 -99.99 -9.99
2019/08/18 16:06 EDT    0.75   1.33   13  160   16  82.9  78.8 1015.3 -9.9 -9.999 -99.9 -99.99 -9.99
2019/08/18 16:12 EDT    0.72   1.31   14  162   17  82.2  79.2 1015.5 -9.9 -9.999 -99.9 -99.99 -9.99
2019/08/18 16:18 EDT    0.70   1.29   14  160   17  82.2  79.2 1015.5 -9.9 -9.999 -99.9 -99.99 -9.99
2019/08/18 16:24 EDT    0.68   1.27   10  158   14  81.3  79.3 1015.5 -9.9 -9.999 -99.9 -99.99 -9.99
2019/08/18 16:30 EDT    0.67   1.26   12  152   15  81.3  79.3 1015.5 -9.9 -9.999 -99.9 -99.99 -9.99
2019/08/18 16:36 EDT    0.66   1.26   12  161   15  81.3  79.9 1015.5 -9.9 -9.999 -99.9 -99.99 -9.99
2019/08/18 16:42 EDT    0.66   1.27   12  159   15  81.1  79.3 1015.4 -9.9 -9.999 -99.9 -99.99 -9.99
2019/08/18 16:48 EDT    0.67   1.25   12  166   15  81.1  79.5 1015.2 -9.9 -9.999 -99.9 -99.99 -9.99
2019/08/18 16:54 EDT    0.69   1.28   11  162   15  81.3  79.7 1014.9 -9.9 -9.999 -99.9 -99.99 -9.99
2019/08/18 17:00 EDT    0.71   1.31   12  168   14  81.1  79.9 1014.8 -9.9 -9.999 -99.9 -99.99 -9.99
2019/08/18 17:06 EDT    0.74   1.30   11  164   14  81.1  79.9 1015.0 -9.9 -9.999 -99.9 -99.99 -9.99
2019/08/18 17:12 EDT    0.78   1.35   10  166   12  80.6  79.9 1014.9 -9.9 -9.999 -99.9 -99.99 -9.99
2019/08/18 17:18 EDT    0.82   1.40   10  170   11  80.6  79.5 1014.9 -9.9 -9.999 -99.9 -99.99 -9.99
2019/08/18 17:24 EDT    0.87   1.45    9  172   11  80.8  79.5 1015.0 -9.9 -9.999 -99.9 -99.99 -9.99
2019/08/18 17:30 EDT    0.93   1.53    8  173   10  80.6  79.5 1015.0 -9.9 -9.999 -99.9 -99.99 -9.99
2019/08/18 17:36 EDT    0.99   1.59    9  213   12  80.6  79.3 1015.1 -9.9 -9.999 -99.9 -99.99 -9.99
2019/08/18 17:42 EDT    1.06   1.74   10  219   15  81.0  78.6 1015.0 -9.9 -9.999 -99.9 -99.99 -9.99
2019/08/18 17:48 EDT    1.14   1.81   12  211   13  81.5  78.8 1015.0 -9.9 -9.999 -99.9 -99.99 -9.99
2019/08/18 17:54 EDT    1.22   1.90   11  211   14  81.5  79.0 1015.1 -9.9 -9.999 -99.9 -99.99 -9.99
2019/08/18 18:00 EDT    1.31   1.99    9  210   11  81.7  78.6 1015.1 -9.9 -9.999 -99.9 -99.99 -9.99
2019/08/18 18:06 EDT    1.41   2.06    8  220   10  81.1  78.6 1015.2 -9.9 -9.999 -99.9 -99.99 -9.99
2019/08/18 18:12 EDT    1.51   2.19    8  226   10  81.5  78.8 1015.4 -9.9 -9.999 -99.9 -99.99 -9.99
2019/08/18 18:18 EDT    1.61   2.27    8  211   10  81.3  78.8 1015.4 -9.9 -9.999 -99.9 -99.99 -9.99
2019/08/18 18:24 EDT    1.72   2.37    7  206    8  81.1  78.8 1015.4 -9.9 -9.999 -99.9 -99.99 -9.99
2019/08/18 18:30 EDT    1.83   2.46    7  221    9  81.1  78.6 1015.4 -9.9 -9.999 -99.9 -99.99 -9.99
2019/08/18 18:36 EDT    1.94   2.60    8  210    9  81.0  77.9 1015.4 -9.9 -9.999 -99.9 -99.99 -9.99
2019/08/18 18:42 EDT    2.06   2.69    8  212    9  81.3  77.9 1015.3 -9.9 -9.999 -99.9 -99.99 -9.99
2019/08/18 18:48 EDT    2.18   2.80   10  216   11  81.1  77.9 1015.2 -9.9 -9.999 -99.9 -99.99 -9.99
2019/08/18 18:54 EDT    2.30   2.94    9  221   11  81.5  77.9 1015.0 -9.9 -9.999 -99.9 -99.99 -9.99
2019/08/18 19:00 EDT    2.42   3.07    7  227    9  81.0  78.1 1015.0 -9.9 -9.999 -99.9 -99.99 -9.99
2019/08/18 19:06 EDT    2.54   3.20    7  225    9  80.6  77.9 1015.0 -9.9 -9.999 -99.9 -99.99 -9.99
2019/08/18 19:12 EDT    2.66   3.32    5  232    7  80.8  77.9 1014.9 -9.9 -9.999 -99.9 -99.99 -9.99
2019/08/18 19:18 EDT    2.78   3.43    4  235    6  80.4  77.9 1014.9 -9.9 -9.999 -99.9 -99.99 -9.99
2019/08/18 19:24 EDT    2.90   3.58    3  260    4  80.4  77.9 1014.9 -9.9 -9.999 -99.9 -99.99 -9.99
2019/08/18 19:30 EDT    3.02   3.71    4  259    4  80.8  77.5 1015.0 -9.9 -9.999 -99.9 -99.99 -9.99
2019/08/18 19:36 EDT    3.13   3.78    2  276    4  80.6  77.4 1015.1 -9.9 -9.999 -99.9 -99.99 -9.99
2019/08/18 19:42 EDT    3.25   3.95    4  302    4  80.4  77.0 1015.2 -9.9 -9.999 -99.9 -99.99 -9.99
2019/08/18 19:48 EDT    3.36   4.07    5  301    6  79.7  77.0 1015.3 -9.9 -9.999 -99.9 -99.99 -9.99
2019/08/18 19:54 EDT    3.46   4.15    5  295    6  79.2  77.0 1015.3 -9.9 -9.999 -99.9 -99.99 -9.99
2019/08/18 20:00 EDT    3.57   4.27    9  288    9  78.8  76.8 1015.3 -9.9 -9.999 -99.9 -99.99 -9.99
2019/08/18 20:06 EDT    3.67   4.37   10  302   11  78.8  76.8 1015.4 -9.9 -9.999 -99.9 -99.99 -9.99
2019/08/18 20:12 EDT    3.77   4.46   11  313   14  78.8  76.8 1015.7 -9.9 -9.999 -99.9 -99.99 -9.99
2019/08/18 20:18 EDT    3.86   4.50    9  311   12  79.7  76.8 1015.9 -9.9 -9.999 -99.9 -99.99 -9.99
2019/08/18 20:24 EDT    3.95   4.60   17  324   24  79.3  76.8 1015.9 -9.9 -9.999 -99.9 -99.99 -9.99
2019/08/18 20:30 EDT    4.04   4.72   14  330   21  79.0  76.8 1016.1 -9.9 -9.999 -99.9 -99.99 -9.99
2019/08/18 20:36 EDT    4.12   4.78   14  337   20  79.0  76.8 1016.1 -9.9 -9.999 -99.9 -99.99 -9.99
2019/08/18 20:42 EDT    4.20   4.82   11  355   17  78.4  76.8 1016.3 -9.9 -9.999 -99.9 -99.99 -9.99
2019/08/18 20:48 EDT    4.28   4.97    8   11   14  74.8  76.8 1016.5 -9.9 -9.999 -99.9 -99.99 -9.99
2019/08/18 20:54 EDT    4.35   5.06    6  357   12  74.8  76.6 1016.4 -9.9 -9.999 -99.9 -99.99 -9.99
2019/08/18 21:00 EDT    4.42   5.07    7    7   11  75.0  76.8 1016.4 -9.9 -9.999 -99.9 -99.99 -9.99
2019/08/18 21:06 EDT    4.48   5.11    4   13    6  75.4  76.8 1016.5 -9.9 -9.999 -99.9 -99.99 -9.99
2019/08/18 21:12 EDT    4.54   5.18    3  358    5  75.6  76.8 1016.3 -9.9 -9.999 -99.9 -99.99 -9.99
2019/08/18 21:18 EDT    4.60   5.18    2  354    4  75.2  76.8 1016.4 -9.9 -9.999 -99.9 -99.99 -9.99
2019/08/18 21:24 EDT    4.65   5.20    2  327    3  75.0  76.6 1016.5 -9.9 -9.999 -99.9 -99.99 -9.99
2019/08/18 21:30 EDT    4.70   5.23    2  327    3  75.2  76.6 1016.5 -9.9 -9.999 -99.9 -99.99 -9.99
2019/08/18 21:36 EDT    4.75   5.29    2   76    3  75.7  76.8 1016.3 -9.9 -9.999 -99.9 -99.99 -9.99
2019/08/18 21:42 EDT    4.79   5.32    3  129    4  75.4  76.6 1016.2 -9.9 -9.999 -99.9 -99.99 -9.99
2019/08/18 21:48 EDT    4.83   5.34    3  150    4  75.2  76.6 1016.2 -9.9 -9.999 -99.9 -99.99 -9.99
2019/08/18 21:54 EDT    4.87   5.40    2  142    3  75.0  76.6 1016.2 -9.9 -9.999 -99.9 -99.99 -9.99
2019/08/18 22:00 EDT    4.90   5.45    0  197    2  74.7  76.8 1016.3 -9.9 -9.999 -99.9 -99.99 -9.99
2019/08/18 22:06 EDT    4.93   5.44    1  330    1  74.8  76.6 1016.4 -9.9 -9.999 -99.9 -99.99 -9.99
2019/08/18 22:12 EDT    4.95   5.49    0  258    2  75.4  76.3 1016.4 -9.9 -9.999 -99.9 -99.99 -9.99
2019/08/18 22:18 EDT    4.97   5.51    0  256    0  75.4  76.1 1016.4 -9.9 -9.999 -99.9 -99.99 -9.99
2019/08/18 22:24 EDT    4.98   5.47    3  163    3  75.4  75.9 1016.3 -9.9 -9.999 -99.9 -99.99 -9.99
2019/08/18 22:30 EDT    4.99   5.52    4  149    4  75.0  75.7 1016.1 -9.9 -9.999 -99.9 -99.99 -9.99
2019/08/18 22:36 EDT    5.00   5.47    4  135    5  75.4  75.7 1016.1 -9.9 -9.999 -99.9 -99.99 -9.99
2019/08/18 22:42 EDT    5.00   5.49    4  135    7  74.8  75.7 1016.0 -9.9 -9.999 -99.9 -99.99 -9.99
2019/08/18 22:48 EDT    4.99   5.45    2  121    6  74.7  75.9 1015.9 -9.9 -9.999 -99.9 -99.99 -9.99
2019/08/18 22:54 EDT    4.98   5.47    1  162    2  74.5  76.1 1016.0 -9.9 -9.999 -99.9 -99.99 -9.99
2019/08/18 23:00 EDT    4.97   5.45    4  163    5  74.7  76.5 1016.0 -9.9 -9.999 -99.9 -99.99 -9.99
2019/08/18 23:06 EDT    4.94   5.44    5  169    5  75.0  76.6 1015.9 -9.9 -9.999 -99.9 -99.99 -9.99
2019/08/18 23:12 EDT    4.92   5.42    6  172    6  75.2  76.6 1015.9 -9.9 -9.999 -99.9 -99.99 -9.99
2019/08/18 23:18 EDT    4.89   5.43    6  167    7  75.4  76.6 1015.8 -9.9 -9.999 -99.9 -99.99 -9.99
2019/08/18 23:24 EDT    4.85   5.38    5  164    7  75.9  76.8 1015.8 -9.9 -9.999 -99.9 -99.99 -9.99
2019/08/18 23:30 EDT    4.80   5.33    5  172    6  75.7  76.8 1015.7 -9.9 -9.999 -99.9 -99.99 -9.99
2019/08/18 23:36 EDT    4.75   5.28    6  167    6  76.1  76.8 1015.6 -9.9 -9.999 -99.9 -99.99 -9.99
2019/08/18 23:42 EDT    4.70   5.21    5  180    6  76.5  76.6 1015.5 -9.9 -9.999 -99.9 -99.99 -9.99
2019/08/18 23:48 EDT    4.64   5.16    6  183    7  76.5  76.6 1015.4 -9.9 -9.999 -99.9 -99.99 -9.99
2019/08/18 23:54 EDT    4.57   5.08    5  162    7  76.5  76.5 1015.3 -9.9 -9.999 -99.9 -99.99 -9.99
2019/08/19 00:00 EDT    4.50   5.02    4  157    6  76.5  76.5 1015.2 -9.9 -9.999 -99.9 -99.99 -9.99
2019/08/19 00:06 EDT    4.42   4.92    4  155    5  76.1  76.5 1015.1 -9.9 -9.999 -99.9 -99.99 -9.99
2019/08/19 00:12 EDT    4.34   4.89    5  145    6  75.9  76.5 1015.1 -9.9 -9.999 -99.9 -99.99 -9.99
2019/08/19 00:18 EDT    4.25   4.77    4  150    5  75.6  76.6 1014.9 -9.9 -9.999 -99.9 -99.99 -9.99
2019/08/19 00:24 EDT    4.16   4.71    3  128    5  75.6  76.6 1014.9 -9.9 -9.999 -99.9 -99.99 -9.99
2019/08/19 00:30 EDT    4.06   4.63    4  149    5  75.4  76.6 1014.8 -9.9 -9.999 -99.9 -99.99 -9.99
2019/08/19 00:36 EDT    3.96   4.53    5  121    7  75.2  76.6 1014.7 -9.9 -9.999 -99.9 -99.99 -9.99
2019/08/19 00:42 EDT    3.86   4.43    5  135    7  75.0  76.6 1014.7 -9.9 -9.999 -99.9 -99.99 -9.99
2019/08/19 00:48 EDT    3.75   4.32    7  141    8  75.4  76.6 1014.5 -9.9 -9.999 -99.9 -99.99 -9.99
2019/08/19 00:54 EDT    3.64   4.22    6  136    8  75.2  76.6 1014.5 -9.9 -9.999 -99.9 -99.99 -9.99
2019/08/19 01:00 EDT    3.53   4.09    6  154    8  75.2  76.6 1014.5 -9.9 -9.999 -99.9 -99.99 -9.99
2019/08/19 01:06 EDT    3.42   4.01    6  175    7  75.2  76.6 1014.6 -9.9 -9.999 -99.9 -99.99 -9.99
2019/08/19 01:12 EDT    3.30   3.92    5  175    7  75.7  76.6 1014.7 -9.9 -9.999 -99.9 -99.99 -9.99
2019/08/19 01:18 EDT    3.19   3.81    5  192    6  76.1  76.6 1014.7 -9.9 -9.999 -99.9 -99.99 -9.99
2019/08/19 01:24 EDT    3.07   3.71    5  215    5  76.3  76.6 1014.8 -9.9 -9.999 -99.9 -99.99 -9.99
2019/08/19 01:30 EDT    2.95   3.61    6  225    7  76.6  76.6 1014.8 -9.9 -9.999 -99.9 -99.99 -9.99
2019/08/19 01:36 EDT    2.83   3.52    6  254    7  76.1  76.6 1014.9 -9.9 -9.999 -99.9 -99.99 -9.99
2019/08/19 01:42 EDT    2.72   3.40    6  255    7  75.7  76.6 1014.8 -9.9 -9.999 -99.9 -99.99 -9.99
2019/08/19 01:48 EDT    2.60   3.27    6  255    7  75.6  76.6 1014.7 -9.9 -9.999 -99.9 -99.99 -9.99
2019/08/19 01:54 EDT    2.49   3.19    4  199    4  75.4  76.6 1014.5 -9.9 -9.999 -99.9 -99.99 -9.99
2019/08/19 02:00 EDT    2.37   3.07    5  212    5  75.2  76.8 1014.5 -9.9 -9.999 -99.9 -99.99 -9.99
2019/08/19 02:06 EDT    2.26   2.96    4  192    5  75.0  76.8 1014.5 -9.9 -9.999 -99.9 -99.99 -9.99
2019/08/19 02:12 EDT    2.15   2.86    4  175    5  74.8  76.8 1014.5 -9.9 -9.999 -99.9 -99.99 -9.99
2019/08/19 02:18 EDT    2.04   2.77    4  189    5  74.8  76.8 1014.4 -9.9 -9.999 -99.9 -99.99 -9.99
2019/08/19 02:24 EDT    1.93   2.67    8  175    9  75.2  76.8 1014.3 -9.9 -9.999 -99.9 -99.99 -9.99
2019/08/19 02:30 EDT    1.83   2.58    7  180   10  75.7  76.8 1014.2 -9.9 -9.999 -99.9 -99.99 -9.99
2019/08/19 02:36 EDT    1.72   2.52    8  181   10  75.9  76.8 1014.2 -9.9 -9.999 -99.9 -99.99 -9.99
2019/08/19 02:42 EDT    1.62   2.43    9  180   11  76.5  76.8 1014.2 -9.9 -9.999 -99.9 -99.99 -9.99
2019/08/19 02:48 EDT    1.53   2.35    8  168    9  76.6  76.8 1014.1 -9.9 -9.999 -99.9 -99.99 -9.99
2019/08/19 02:54 EDT    1.43   2.28    8  170    8  76.6  77.0 1014.1 -9.9 -9.999 -99.9 -99.99 -9.99
2019/08/19 03:00 EDT    1.34   2.21    8  174    9  76.5  77.0 1014.0 -9.9 -9.999 -99.9 -99.99 -9.99
2019/08/19 03:06 EDT    1.25   2.12    7  171    9  76.5  77.0 1013.9 -9.9 -9.999 -99.9 -99.99 -9.99
2019/08/19 03:12 EDT    1.17   2.05    5  185    8  76.5  77.0 1013.9 -9.9 -9.999 -99.9 -99.99 -9.99
2019/08/19 03:18 EDT    1.09   1.97    5  204    6  76.5  77.0 1014.0 -9.9 -9.999 -99.9 -99.99 -9.99
2019/08/19 03:24 EDT    1.01   1.90    6  245    7  76.6  77.0 1014.2 -9.9 -9.999 -99.9 -99.99 -9.99
2019/08/19 03:30 EDT    0.93   1.81    7  261    8  76.1  77.0 1014.4 -9.9 -9.999 -99.9 -99.99 -9.99
2019/08/19 03:36 EDT    0.86   1.74    6  263    8  75.7  77.0 1014.5 -9.9 -9.999 -99.9 -99.99 -9.99
2019/08/19 03:42 EDT    0.79   1.66    9  247   11  75.9  77.0 1014.7 -9.9 -9.999 -99.9 -99.99 -9.99
2019/08/19 03:48 EDT    0.73   1.61    9  232   11  75.6  77.0 1014.9 -9.9 -9.999 -99.9 -99.99 -9.99
2019/08/19 03:54 EDT    0.67   1.55    9  248   10  75.4  77.0 1015.0 -9.9 -9.999 -99.9 -99.99 -9.99
2019/08/19 04:00 EDT    0.61   1.49    9  246   11  75.4  77.0 1015.1 -9.9 -9.999 -99.9 -99.99 -9.99
2019/08/19 04:06 EDT    0.56   1.43   10  244   12  75.2  77.0 1015.2 -9.9 -9.999 -99.9 -99.99 -9.99
2019/08/19 04:12 EDT    0.52   1.38    8  238   11  75.2  77.0 1015.3 -9.9 -9.999 -99.9 -99.99 -9.99
2019/08/19 04:18 EDT    0.48   1.32    7  239    9  75.2  77.0 1015.4 -9.9 -9.999 -99.9 -99.99 -9.99
2019/08/19 04:24 EDT    0.44   1.28    7  235    8  75.0  77.0 1015.4 -9.9 -9.999 -99.9 -99.99 -9.99
2019/08/19 04:30 EDT    0.41   1.22    6  239    8  74.8  77.0 1015.3 -9.9 -9.999 -99.9 -99.99 -9.99
2019/08/19 04:36 EDT    0.38   1.15    6  242    7  74.8  77.0 1015.2 -9.9 -9.999 -99.9 -99.99 -9.99
2019/08/19 04:42 EDT    0.37   1.11    5  247    7  74.7  77.0 1015.3 -9.9 -9.999 -99.9 -99.99 -9.99
2019/08/19 04:48 EDT    0.35   1.08    4  264    6  74.7  77.0 1015.3 -9.9 -9.999 -99.9 -99.99 -9.99
2019/08/19 04:54 EDT    0.35   1.04    6  280    8  74.8  77.0 1015.4 -9.9 -9.999 -99.9 -99.99 -9.99
2019/08/19 05:00 EDT    0.35   1.01    6  289    8  74.8  77.0 1015.4 -9.9 -9.999 -99.9 -99.99 -9.99
2019/08/19 05:06 EDT    0.35   0.99    6  279    8  74.8  77.0 1015.4 -9.9 -9.999 -99.9 -99.99 -9.99
2019/08/19 05:12 EDT    0.37   1.00    7  287    9  74.7  77.0 1015.5 -9.9 -9.999 -99.9 -99.99 -9.99
2019/08/19 05:18 EDT    0.39   1.00    5  278    7  74.5  77.0 1015.5 -9.9 -9.999 -99.9 -99.99 -9.99
2019/08/19 05:24 EDT    0.42   1.02    6  277    9  74.3  77.0 1015.5 -9.9 -9.999 -99.9 -99.99 -9.99
2019/08/19 05:30 EDT    0.45   1.05    5  276    7  74.3  77.0 1015.6 -9.9 -9.999 -99.9 -99.99 -9.99
2019/08/19 05:36 EDT    0.50   1.07    7  277    9  74.3  77.0 1015.7 -9.9 -9.999 -99.9 -99.99 -9.99
2019/08/19 05:42 EDT    0.55   1.12    6  275    8  74.1  77.0 1015.7 -9.9 -9.999 -99.9 -99.99 -9.99
2019/08/19 05:48 EDT    0.60   1.15    7  260    8  74.1  77.0 1015.7 -9.9 -9.999 -99.9 -99.99 -9.99
2019/08/19 05:54 EDT    0.67   1.22    6  239    8  74.1  77.0 1015.8 -9.9 -9.999 -99.9 -99.99 -9.99
2019/08/19 06:00 EDT    0.74   1.26    6  244    8  74.1  77.0 1015.8 -9.9 -9.999 -99.9 -99.99 -9.99
2019/08/19 06:06 EDT    0.81   1.36    8  256    9  73.9  77.0 1015.9 -9.9 -9.999 -99.9 -99.99 -9.99
2019/08/19 06:12 EDT    0.90   1.44    7  259   10  74.1  77.0 1016.1 -9.9 -9.999 -99.9 -99.99 -9.99
2019/08/19 06:18 EDT    0.98   1.53    7  259    9  74.1  77.0 1016.2 -9.9 -9.999 -99.9 -99.99 -9.99
2019/08/19 06:24 EDT    1.08   1.63    7  252    8  74.1  77.0 1016.1 -9.9 -9.999 -99.9 -99.99 -9.99
2019/08/19 06:30 EDT    1.18   1.74    8  251   10  74.1  77.0 1016.1 -9.9 -9.999 -99.9 -99.99 -9.99
2019/08/19 06:36 EDT    1.28   1.86    7  252    8  74.1  77.0 1016.0 -9.9 -9.999 -99.9 -99.99 -9.99
2019/08/19 06:42 EDT    1.39   1.97    8  256    9  74.1  77.0 1016.0 -9.9 -9.999 -99.9 -99.99 -9.99
2019/08/19 06:48 EDT    1.50   2.07    9  255    9  73.9  77.0 1016.0 -9.9 -9.999 -99.9 -99.99 -9.99
2019/08/19 06:54 EDT    1.62   2.19    8  251    9  74.1  77.0 1016.0 -9.9 -9.999 -99.9 -99.99 -9.99
2019/08/19 07:00 EDT    1.73   2.33    8  249    9  73.9  77.0 1015.9 -9.9 -9.999 -99.9 -99.99 -9.99
2019/08/19 07:06 EDT    1.85   2.40    7  244    9  74.1  77.0 1016.0 -9.9 -9.999 -99.9 -99.99 -9.99
2019/08/19 07:12 EDT    1.97   2.53    6  240    8  73.9  77.0 1016.0 -9.9 -9.999 -99.9 -99.99 -9.99
2019/08/19 07:18 EDT    2.09   2.66    6  246    9  73.9  77.0 1016.0 -9.9 -9.999 -99.9 -99.99 -9.99
2019/08/19 07:24 EDT    2.22   2.76    6  257    8  74.1  76.8 1015.9 -9.9 -9.999 -99.9 -99.99 -9.99
2019/08/19 07:30 EDT    2.34   2.88    6  241    8  74.1  76.8 1015.9 -9.9 -9.999 -99.9 -99.99 -9.99
2019/08/19 07:36 EDT    2.46   3.03    5  239    6  74.1  76.8 1015.9 -9.9 -9.999 -99.9 -99.99 -9.99
2019/08/19 07:42 EDT    2.58   3.14    4  197    7  74.3  76.8 1016.0 -9.9 -9.999 -99.9 -99.99 -9.99
2019/08/19 07:48 EDT    2.70   3.24    4  183    5  74.1  76.8 1015.9 -9.9 -9.999 -99.9 -99.99 -9.99
2019/08/19 07:54 EDT    2.81   3.37    3  220    4  73.9  76.8 1015.9 -9.9 -9.999 -99.9 -99.99 -9.99
2019/08/19 08:00 EDT    2.93   3.49    3  212    4  73.9  76.6 1016.0 -9.9 -9.999 -99.9 -99.99 -9.99
2019/08/19 08:06 EDT    3.04   3.59    5  213    6  74.1  76.6 1016.1 -9.9 -9.999 -99.9 -99.99 -9.99
2019/08/19 08:12 EDT    3.14   3.68    4  214    7  74.1  76.6 1016.1 -9.9 -9.999 -99.9 -99.99 -9.99
2019/08/19 08:18 EDT    3.25   3.76    3  214    5  74.3  76.6 1016.0 -9.9 -9.999 -99.9 -99.99 -9.99
2019/08/19 08:24 EDT    3.35   3.86    4  199    5  74.5  76.6 1015.9 -9.9 -9.999 -99.9 -99.99 -9.99
2019/08/19 08:30 EDT    3.45   3.94    3  201    5  74.7  76.6 1015.9 -9.9 -9.999 -99.9 -99.99 -9.99
2019/08/19 08:36 EDT    3.54   4.01    4  166    5  75.0  76.6 1015.8 -9.9 -9.999 -99.9 -99.99 -9.99
2019/08/19 08:42 EDT    3.63   4.12    2  188    5  75.0  76.6 1015.8 -9.9 -9.999 -99.9 -99.99 -9.99
2019/08/19 08:48 EDT    3.72   4.18    2  223    3  75.2  76.6 1015.8 -9.9 -9.999 -99.9 -99.99 -9.99
2019/08/19 08:54 EDT    3.80   4.29    2  278    3  75.6  76.6 1015.9 -9.9 -9.999 -99.9 -99.99 -9.99
2019/08/19 09:00 EDT    3.88   4.36    4  288    5  76.5  76.6 1015.9 -9.9 -9.999 -99.9 -99.99 -9.99
2019/08/19 09:06 EDT    3.95   4.44    5  284    7  76.5  76.6 1015.9 -9.9 -9.999 -99.9 -99.99 -9.99
2019/08/19 09:12 EDT    4.03   4.53    4  278    8  76.6  76.6 1016.0 -9.9 -9.999 -99.9 -99.99 -9.99
2019/08/19 09:18 EDT    4.09   4.61    3  266    5  77.0  76.6 1015.9 -9.9 -9.999 -99.9 -99.99 -9.99
2019/08/19 09:24 EDT    4.16   4.66    2  272    4  77.4  76.8 1015.9 -9.9 -9.999 -99.9 -99.99 -9.99
2019/08/19 09:30 EDT    4.22   4.75    1  272    4  77.5  76.8 1015.9 -9.9 -9.999 -99.9 -99.99 -9.99
2019/08/19 09:36 EDT    4.27   4.79    1  290    2  78.1  76.8 1016.0 -9.9 -9.999 -99.9 -99.99 -9.99
2019/08/19 09:42 EDT    4.33   4.86    1  270    1  78.4  76.8 1015.9 -9.9 -9.999 -99.9 -99.99 -9.99
2019/08/19 09:48 EDT    4.37   4.93    2  294    2  78.8  76.8 1016.0 -9.9 -9.999 -99.9 -99.99 -9.99
2019/08/19 09:54 EDT    4.42   4.97    4  310    5  78.4  76.8 1016.0 -9.9 -9.999 -99.9 -99.99 -9.99
2019/08/19 10:00 EDT    4.46   5.04    4  310    5  77.4  76.8 1016.1 -9.9 -9.999 -99.9 -99.99 -9.99
2019/08/19 10:06 EDT    4.50   5.08    4  289    5  76.8  76.8 1015.9 -9.9 -9.999 -99.9 -99.99 -9.99
2019/08/19 10:12 EDT    4.54   5.16    1  302    5  77.4  76.8 1016.0 -9.9 -9.999 -99.9 -99.99 -9.99
2019/08/19 10:18 EDT    4.57   5.21    2  280    3  78.1  76.8 1016.0 -9.9 -9.999 -99.9 -99.99 -9.99
2019/08/19 10:24 EDT    4.60   5.24    3  283    4  79.0  76.8 1015.9 -9.9 -9.999 -99.9 -99.99 -9.99
2019/08/19 10:30 EDT    4.62   5.26    2  278    5  79.3  76.8 1015.9 -9.9 -9.999 -99.9 -99.99 -9.99
2019/08/19 10:36 EDT    4.65   5.31    1  267    3  79.0  76.6 1015.9 -9.9 -9.999 -99.9 -99.99 -9.99
2019/08/19 10:42 EDT    4.66   5.33    2  162    3  79.0  76.6 1015.8 -9.9 -9.999 -99.9 -99.99 -9.99
2019/08/19 10:48 EDT    4.68   5.34    3  304    4  78.3  76.6 1015.8 -9.9 -9.999 -99.9 -99.99 -9.99
2019/08/19 10:54 EDT    4.69   5.37    3  289    4  78.8  76.5 1015.9 -9.9 -9.999 -99.9 -99.99 -9.99
2019/08/19 11:00 EDT    4.70   5.40    4  287    4  78.8  76.5 1015.9 -9.9 -9.999 -99.9 -99.99 -9.99
2019/08/19 11:06 EDT    4.70   5.42    3  296    5  80.1  76.3 1015.9 -9.9 -9.999 -99.9 -99.99 -9.99
2019/08/19 11:12 EDT    4.69   5.43    4  292    5  80.2  75.9 1015.9 -9.9 -9.999 -99.9 -99.99 -9.99
2019/08/19 11:18 EDT    4.69   5.45    2  295    4  80.1  75.9 1015.9 -9.9 -9.999 -99.9 -99.99 -9.99
2019/08/19 11:24 EDT    4.67   5.45    3  107    4  80.6  75.7 1015.9 -9.9 -9.999 -99.9 -99.99 -9.99
2019/08/19 11:30 EDT    4.66   5.45    5  103    6  80.2  75.7 1015.9 -9.9 -9.999 -99.9 -99.99 -9.99
2019/08/19 11:36 EDT    4.64   5.38    6   97    7  79.7  75.7 1015.9 -9.9 -9.999 -99.9 -99.99 -9.99
2019/08/19 11:42 EDT    4.61   5.38    6  105    7  79.5  75.7 1015.9 -9.9 -9.999 -99.9 -99.99 -9.99
2019/08/19 11:48 EDT    4.58   5.31    5  129    7  79.0  75.7 1015.9 -9.9 -9.999 -99.9 -99.99 -9.99
2019/08/19 11:54 EDT    4.54   5.29    5  116    8  79.7  75.7 1016.0 -9.9 -9.999 -99.9 -99.99 -9.99
2019/08/19 12:00 EDT    4.50   5.25    6  142    8  79.7  75.7 1015.9 -9.9 -9.999 -99.9 -99.99 -9.99
2019/08/19 12:06 EDT    4.45   5.21    4  165    5  79.3  75.7 1015.9 -9.9 -9.999 -99.9 -99.99 -9.99
2019/08/19 12:12 EDT    4.40   5.15    4  174    6  79.9  75.7 1016.0 -9.9 -9.999 -99.9 -99.99 -9.99
2019/08/19 12:18 EDT    4.34   5.09    6  174    7  79.7  75.7 1016.0 -9.9 -9.999 -99.9 -99.99 -9.99
2019/08/19 12:24 EDT    4.27   5.03    7  165    9  79.7  75.7 1015.9 -9.9 -9.999 -99.9 -99.99 -9.99
2019/08/19 12:30 EDT    4.21   4.95    6  174    7  80.1  75.7 1015.9 -9.9 -9.999 -99.9 -99.99 -9.99
2019/08/19 12:36 EDT    4.14   4.87    6  179    9  79.7  75.7 1015.9 -9.9 -9.999 -99.9 -99.99 -9.99
2019/08/19 12:42 EDT    4.06   4.77    5  175    7  80.1  75.7 1015.9 -9.9 -9.999 -99.9 -99.99 -9.99
2019/08/19 12:48 EDT    3.98   4.66    7  178    8  80.2  75.7 1015.8 -9.9 -9.999 -99.9 -99.99 -9.99
2019/08/19 12:54 EDT    3.89   4.59    7  180    8  79.9  75.7 1015.7 -9.9 -9.999 -99.9 -99.99 -9.99
2019/08/19 13:00 EDT    3.81   4.49    9  172   10  80.1  76.1 1015.7 -9.9 -9.999 -99.9 -99.99 -9.99
2019/08/19 13:06 EDT    3.72   4.39    9  159   11  80.2  76.3 1015.6 -9.9 -9.999 -99.9 -99.99 -9.99
2019/08/19 13:12 EDT    3.62   4.27   11  172   12  80.6  76.1 1015.6 -9.9 -9.999 -99.9 -99.99 -9.99
2019/08/19 13:18 EDT    3.53   4.16    8  159   11  80.8  76.1 1015.5 -9.9 -9.999 -99.9 -99.99 -9.99
2019/08/19 13:24 EDT    3.43   4.06   10  151   11  81.5  75.9 1015.4 -9.9 -9.999 -99.9 -99.99 -9.99
2019/08/19 13:30 EDT    3.33   3.96    9  154   12  81.5  76.3 1015.4 -9.9 -9.999 -99.9 -99.99 -9.99
2019/08/19 13:36 EDT    3.23   3.84   10  137   12  81.3  77.2 1015.4 -9.9 -9.999 -99.9 -99.99 -9.99
2019/08/19 13:42 EDT    3.13   3.72   11  147   12  81.3  77.5 1015.3 -9.9 -9.999 -99.9 -99.99 -9.99
2019/08/19 13:48 EDT    3.02   3.64    9  131   11  80.8  77.4 1015.2 -9.9 -9.999 -99.9 -99.99 -9.99
2019/08/19 13:54 EDT    2.92   3.55    9  135   11  80.8  77.2 1015.3 -9.9 -9.999 -99.9 -99.99 -9.99
2019/08/19 14:00 EDT    2.82   3.42    8  128   11  80.8  77.2 1015.2 -9.9 -9.999 -99.9 -99.99 -9.99
2019/08/19 14:06 EDT    2.72   3.32   10  124   12  81.3  77.2 1015.2 -9.9 -9.999 -99.9 -99.99 -9.99
2019/08/19 14:12 EDT    2.62   3.20    9  130   12  80.8  77.4 1015.1 -9.9 -9.999 -99.9 -99.99 -9.99
2019/08/19 14:18 EDT    2.52   3.10    9  138   13  80.6  77.7 1015.1 -9.9 -9.999 -99.9 -99.99 -9.99
2019/08/19 14:24 EDT    2.42   2.99   12  138   14  80.4  78.1 1014.9 -9.9 -9.999 -99.9 -99.99 -9.99
2019/08/19 14:30 EDT    2.33   2.88    9  137   14  80.1  78.3 1014.8 -9.9 -9.999 -99.9 -99.99 -9.99
2019/08/19 14:36 EDT    2.23   2.76   11  144   14  80.4  78.6 1014.7 -9.9 -9.999 -99.9 -99.99 -9.99
2019/08/19 14:42 EDT    2.14   2.67    9  141   15  80.4  78.6 1014.6 -9.9 -9.999 -99.9 -99.99 -9.99
2019/08/19 14:48 EDT    2.05   2.60   12  138   17  80.6  78.6 1014.6 -9.9 -9.999 -99.9 -99.99 -9.99
2019/08/19 14:54 EDT    1.96   2.51   14  147   16  80.2  78.8 1014.6 -9.9 -9.999 -99.9 -99.99 -9.99
2019/08/19 15:00 EDT    1.88   2.43   13  150   17  80.6  78.6 1014.5 -9.9 -9.999 -99.9 -99.99 -9.99
2019/08/19 15:06 EDT    1.79   2.35   12  156   18  80.8  78.6 1014.4 -9.9 -9.999 -99.9 -99.99 -9.99
2019/08/19 15:12 EDT    1.71   2.27   11  161   15  81.0  78.8 1014.3 -9.9 -9.999 -99.9 -99.99 -9.99
2019/08/19 15:18 EDT    1.64   2.20   12  161   16  81.1  78.8 1014.3 -9.9 -9.999 -99.9 -99.99 -9.99
2019/08/19 15:24 EDT    1.56   2.12   10  157   15  81.0  78.6 1014.3 -9.9 -9.999 -99.9 -99.99 -9.99
2019/08/19 15:30 EDT    1.49   2.05   11  162   14  81.5  78.6 1014.1 -9.9 -9.999 -99.9 -99.99 -9.99
2019/08/19 15:36 EDT    1.42   1.98   10  153   13  81.5  78.4 1013.9 -9.9 -9.999 -99.9 -99.99 -9.99
2019/08/19 15:42 EDT    1.36   1.92   12  148   15  81.7  78.3 1013.8 -9.9 -9.999 -99.9 -99.99 -9.99
2019/08/19 15:48 EDT    1.29   1.85   11  147   14  80.6  78.3 1013.7 -9.9 -9.999 -99.9 -99.99 -9.99
2019/08/19 15:54 EDT    1.23   1.83    8  144   13  81.0  78.3 1013.6 -9.9 -9.999 -99.9 -99.99 -9.99
2019/08/19 16:00 EDT    1.18   1.74    8  135   11  81.1  78.3 1013.4 -9.9 -9.999 -99.9 -99.99 -9.99
2019/08/19 16:06 EDT    1.13   1.70    6  125    8  80.4  78.3 1013.6 -9.9 -9.999 -99.9 -99.99 -9.99
2019/08/19 16:12 EDT    1.08   1.66    4  100    7  79.5  78.4 1013.4 -9.9 -9.999 -99.9 -99.99 -9.99
2019/08/19 16:18 EDT    1.03   1.67   15   22   23  79.3  78.4 1013.6 -9.9 -9.999 -99.9 -99.99 -9.99
2019/08/19 16:24 EDT    0.99   1.61   10   46   18  75.6  78.4 1013.8 -9.9 -9.999 -99.9 -99.99 -9.99
2019/08/19 16:30 EDT    0.95   1.40   12   71   14  73.0  78.4 1014.3 -9.9 -9.999 -99.9 -99.99 -9.99
2019/08/19 16:36 EDT    0.92   1.57    6  103   14  73.4  78.4 1013.8 -9.9 -9.999 -99.9 -99.99 -9.99
2019/08/19 16:42 EDT    0.89   1.51   17  138   21  74.5  78.3 1014.1 -9.9 -9.999 -99.9 -99.99 -9.99
2019/08/19 16:48 EDT    0.87   1.38   10  145   17  74.3  78.1 1014.4 -9.9 -9.999 -99.9 -99.99 -9.99
2019/08/19 16:54 EDT    0.85   1.35   11  119   17  74.1  78.1 1014.4 -9.9 -9.999 -99.9 -99.99 -9.99
2019/08/19 17:00 EDT    0.83   1.39    8  110   13  76.1  77.9 1014.7 -9.9 -9.999 -99.9 -99.99 -9.99
2019/08/19 17:06 EDT    0.82   1.30    8  104   12  75.6  78.1 1014.8 -9.9 -9.999 -99.9 -99.99 -9.99
2019/08/19 17:12 EDT    0.82   1.28    8  130   11  74.8  77.9 1014.8 -9.9 -9.999 -99.9 -99.99 -9.99
2019/08/19 17:18 EDT    0.82   1.31   11  129   14  75.7  77.9 1014.7 -9.9 -9.999 -99.9 -99.99 -9.99
2019/08/19 17:24 EDT    0.83   1.35    9  139   14  74.5  77.7 1014.5 -9.9 -9.999 -99.9 -99.99 -9.99
2019/08/19 17:30 EDT    0.84   1.35   11  125   15  74.5  77.7 1014.8 -9.9 -9.999 -99.9 -99.99 -9.99
2019/08/19 17:36 EDT    0.86   1.39   11  139   15  74.1  77.9 1014.8 -9.9 -9.999 -99.9 -99.99 -9.99
2019/08/19 17:42 EDT    0.88   1.43   11  155   13  74.7  77.9 1014.8 -9.9 -9.999 -99.9 -99.99 -9.99
2019/08/19 17:48 EDT    0.92   1.47   12  162   14  75.6  77.7 1015.1 -9.9 -9.999 -99.9 -99.99 -9.99
2019/08/19 17:54 EDT    0.95   1.55    6  145   14  76.1  77.7 1015.1 -9.9 -9.999 -99.9 -99.99 -9.99
2019/08/19 18:00 EDT    1.00   1.59    5  132    8  76.6  77.7 1015.1 -9.9 -9.999 -99.9 -99.99 -9.99
2019/08/19 18:06 EDT    1.05   1.62    6  147    8  77.2  77.7 1015.0 -9.9 -9.999 -99.9 -99.99 -9.99
2019/08/19 18:12 EDT    1.11   1.73    8  166    9  77.0  77.9 1015.0 -9.9 -9.999 -99.9 -99.99 -9.99
2019/08/19 18:18 EDT    1.17   1.84    9  184   10  77.4  77.9 1015.1 -9.9 -9.999 -99.9 -99.99 -9.99
2019/08/19 18:24 EDT    1.24   1.87   11  200   14  77.7  78.1 1015.2 -9.9 -9.999 -99.9 -99.99 -9.99
2019/08/19 18:30 EDT    1.31   1.93   11  202   17  78.1  77.7 1015.1 -9.9 -9.999 -99.9 -99.99 -9.99
2019/08/19 18:36 EDT    1.39   2.08    8  179   11  77.9  77.7 1015.2 -9.9 -9.999 -99.9 -99.99 -9.99
2019/08/19 18:42 EDT    1.48   2.12    9  185   11  77.7  77.7 1015.2 -9.9 -9.999 -99.9 -99.99 -9.99
2019/08/19 18:48 EDT    1.57   2.20   10  211   13  77.9  77.7 1015.1 -9.9 -9.999 -99.9 -99.99 -9.99
2019/08/19 18:54 EDT    1.66   2.30   12  221   14  78.3  77.7 1015.1 -9.9 -9.999 -99.9 -99.99 -9.99
2019/08/19 19:00 EDT    1.76   2.40   11  216   14  77.9  77.7 1015.0 -9.9 -9.999 -99.9 -99.99 -9.99
2019/08/19 19:06 EDT    1.86   2.51   14  214   17  77.9  77.5 1015.0 -9.9 -9.999 -99.9 -99.99 -9.99
2019/08/19 19:12 EDT    1.96   2.56   14  224   18  77.9  77.5 1015.0 -9.9 -9.999 -99.9 -99.99 -9.99
2019/08/19 19:18 EDT    2.07   2.67   13  223   15  77.9  77.7 1015.0 -9.9 -9.999 -99.9 -99.99 -9.99
2019/08/19 19:24 EDT    2.18   2.78   12  220   15  77.9  77.7 1014.8 -9.9 -9.999 -99.9 -99.99 -9.99
2019/08/19 19:30 EDT    2.29   2.80   12  219   15  77.9  77.7 1014.9 -9.9 -9.999 -99.9 -99.99 -9.99
2019/08/19 19:36 EDT    2.40   2.94   11  221   14  77.9  78.1 1014.7 -9.9 -9.999 -99.9 -99.99 -9.99
2019/08/19 19:42 EDT    2.51   3.08   11  224   13  77.7  78.3 1014.7 -9.9 -9.999 -99.9 -99.99 -9.99
2019/08/19 19:48 EDT    2.63   3.13    8  230   11  77.5  77.9 1014.9 -9.9 -9.999 -99.9 -99.99 -9.99
2019/08/19 19:54 EDT    2.74   3.27    3  275    8  77.5  78.3 1015.0 -9.9 -9.999 -99.9 -99.99 -9.99
2019/08/19 20:00 EDT    2.85   3.38    4  256    5  77.5  78.3 1015.2 -9.9 -9.999 -99.9 -99.99 -9.99
2019/08/19 20:06 EDT    2.96   3.51    3  263    4  77.4  78.3 1015.3 -9.9 -9.999 -99.9 -99.99 -9.99
2019/08/19 20:12 EDT    3.07   3.63    5  251    6  77.4  78.3 1015.3 -9.9 -9.999 -99.9 -99.99 -9.99
2019/08/19 20:18 EDT    3.17   3.73    5  244    6  77.2  78.1 1015.3 -9.9 -9.999 -99.9 -99.99 -9.99
2019/08/19 20:24 EDT    3.28   3.86    5  248    6  77.2  78.3 1015.4 -9.9 -9.999 -99.9 -99.99 -9.99
2019/08/19 20:30 EDT    3.38   3.97    7  252    8  77.2  78.1 1015.4 -9.9 -9.999 -99.9 -99.99 -9.99
2019/08/19 20:36 EDT    3.47   4.05    6  255    8  77.4  78.1 1015.3 -9.9 -9.999 -99.9 -99.99 -9.99
2019/08/19 20:42 EDT    3.57   4.11    5  263    8  77.5  78.1 1015.5 -9.9 -9.999 -99.9 -99.99 -9.99
2019/08/19 20:48 EDT    3.66   4.19    4  260    7  77.5  78.1 1015.5 -9.9 -9.999 -99.9 -99.99 -9.99
2019/08/19 20:54 EDT    3.75   4.24    4  253    6  77.5  77.7 1015.6 -9.9 -9.999 -99.9 -99.99 -9.99
2019/08/19 21:00 EDT    3.83   4.30    4  229    6  77.5  77.7 1015.7 -9.9 -9.999 -99.9 -99.99 -9.99
2019/08/19 21:06 EDT    3.91   4.35    5  235    5  77.4  77.9 1015.7 -9.9 -9.999 -99.9 -99.99 -9.99
2019/08/19 21:12 EDT    3.99   4.44    5  249    6  77.5  77.9 1015.8 -9.9 -9.999 -99.9 -99.99 -9.99
2019/08/19 21:18 EDT    4.06   4.47    5  258    7  77.4  77.7 1015.9 -9.9 -9.999 -99.9 -99.99 -9.99
2019/08/19 21:24 EDT    4.13   4.53    4  272    6  77.5  77.7 1015.9 -9.9 -9.999 -99.9 -99.99 -9.99
2019/08/19 21:30 EDT    4.19   4.59    4  269    6  77.5  77.7 1015.9 -9.9 -9.999 -99.9 -99.99 -9.99
2019/08/19 21:36 EDT    4.25   4.67    6  263    7  77.4  77.7 1015.9 -9.9 -9.999 -99.9 -99.99 -9.99
2019/08/19 21:42 EDT    4.31   4.66    3  273    5  77.7  77.7 1016.0 -9.9 -9.999 -99.9 -99.99 -9.99
2019/08/19 21:48 EDT    4.36   4.72    3  290    4  77.5  77.7 1016.0 -9.9 -9.999 -99.9 -99.99 -9.99
2019/08/19 21:54 EDT    4.41   4.80    4  286    6  77.2  77.7 1016.0 -9.9 -9.999 -99.9 -99.99 -9.99
2019/08/19 22:00 EDT    4.46   4.80    7  278   10  77.4  77.7 1016.0 -9.9 -9.999 -99.9 -99.99 -9.99
2019/08/19 22:06 EDT    4.51   4.83    5  269    8  77.5  77.7 1016.1 -9.9 -9.999 -99.9 -99.99 -9.99
2019/08/19 22:12 EDT    4.55   4.90    4  279    6  77.7  77.7 1016.1 -9.9 -9.999 -99.9 -99.99 -9.99
2019/08/19 22:18 EDT    4.58   4.94    4  275    6  77.4  77.7 1016.2 -9.9 -9.999 -99.9 -99.99 -9.99
2019/08/19 22:24 EDT    4.62   4.98    4  276    7  77.2  77.7 1016.2 -9.9 -9.999 -99.9 -99.99 -9.99
2019/08/19 22:30 EDT    4.65   5.03    5  248    7  77.2  77.7 1016.2 -9.9 -9.999 -99.9 -99.99 -9.99
2019/08/19 22:36 EDT    4.67   5.12    8  252    9  77.0  77.7 1016.2 -9.9 -9.999 -99.9 -99.99 -9.99
2019/08/19 22:42 EDT    4.70   5.15    5  266    9  77.2  77.7 1016.3 -9.9 -9.999 -99.9 -99.99 -9.99
2019/08/19 22:48 EDT    4.72   5.17    7  326    9  77.4  77.7 1016.3 -9.9 -9.999 -99.9 -99.99 -9.99
2019/08/19 22:54 EDT    4.73   5.21    4  282    7  76.8  77.7 1016.5 -9.9 -9.999 -99.9 -99.99 -9.99
2019/08/19 23:00 EDT    4.75   5.26    4  278    9  77.0  77.5 1016.5 -9.9 -9.999 -99.9 -99.99 -9.99
2019/08/19 23:06 EDT    4.76   5.27    5  276    8  77.0  77.0 1016.5 -9.9 -9.999 -99.9 -99.99 -9.99
2019/08/19 23:12 EDT    4.76   5.26    5  277    9  77.0  77.0 1016.5 -9.9 -9.999 -99.9 -99.99 -9.99
2019/08/19 23:18 EDT    4.76   5.26    6  279    8  77.0  77.5 1016.5 -9.9 -9.999 -99.9 -99.99 -9.99
2019/08/19 23:24 EDT    4.76   5.24    6  269    8  77.0  77.7 1016.5 -9.9 -9.999 -99.9 -99.99 -9.99
2019/08/19 23:30 EDT    4.75   5.23    7  259    8  77.0  77.7 1016.5 -9.9 -9.999 -99.9 -99.99 -9.99
2019/08/19 23:36 EDT    4.74   5.18    7  251    7  76.8  77.9 1016.4 -9.9 -9.999 -99.9 -99.99 -9.99
2019/08/19 23:42 EDT    4.72   5.16    6  263    8  76.6  77.9 1016.4 -9.9 -9.999 -99.9 -99.99 -9.99
2019/08/19 23:48 EDT    4.70   5.12    4  268    7  76.8  77.9 1016.4 -9.9 -9.999 -99.9 -99.99 -9.99
2019/08/19 23:54 EDT    4.68   5.11    4  267    5  76.8  77.9 1016.4 -9.9 -9.999 -99.9 -99.99 -9.99
2019/08/20 00:00 EDT    4.64   5.10    5  253    6  76.8  77.9 1016.4 -9.9 -9.999 -99.9 -99.99 -9.99
2019/08/20 00:06 EDT    4.61   5.08    4  201    5  76.8  77.9 1016.4 -9.9 -9.999 -99.9 -99.99 -9.99
2019/08/20 00:12 EDT    4.56   5.06    5  223    5  76.8  77.9 1016.4 -9.9 -9.999 -99.9 -99.99 -9.99
2019/08/20 00:18 EDT    4.51   5.02    5  244    5  77.2  77.9 1016.4 -9.9 -9.999 -99.9 -99.99 -9.99
2019/08/20 00:24 EDT    4.46   4.97    6  244    6  77.0  77.9 1016.3 -9.9 -9.999 -99.9 -99.99 -9.99
2019/08/20 00:30 EDT    4.40   4.94    5  239    6  76.8  77.9 1016.4 -9.9 -9.999 -99.9 -99.99 -9.99
2019/08/20 00:36 EDT    4.34   4.87    4  245    6  76.6  77.9 1016.4 -9.9 -9.999 -99.9 -99.99 -9.99
2019/08/20 00:42 EDT    4.27   4.77    5  245    6  76.5  77.9 1016.4 -9.9 -9.999 -99.9 -99.99 -9.99
2019/08/20 00:48 EDT    4.19   4.70    5  263    6  76.5  77.9 1016.5 -9.9 -9.999 -99.9 -99.99 -9.99
2019/08/20 00:54 EDT    4.11   4.61    3  265    5  76.6  77.9 1016.5 -9.9 -9.999 -99.9 -99.99 -9.99
2019/08/20 01:00 EDT    4.03   4.52    4  260    4  76.8  77.9 1016.5 -9.9 -9.999 -99.9 -99.99 -9.99
2019/08/20 01:06 EDT    3.94   4.41    4  251    5  76.6  77.9 1016.5 -9.9 -9.999 -99.9 -99.99 -9.99
2019/08/20 01:12 EDT    3.84   4.32    4  272    6  76.5  77.9 1016.5 -9.9 -9.999 -99.9 -99.99 -9.99
2019/08/20 01:18 EDT    3.75   4.24    6  265    7  76.6  77.7 1016.6 -9.9 -9.999 -99.9 -99.99 -9.99
2019/08/20 01:24 EDT    3.65   4.12    7  262    9  76.8  77.7 1016.7 -9.9 -9.999 -99.9 -99.99 -9.99
2019/08/20 01:30 EDT    3.54   4.04    7  269    9  76.8  77.7 1016.7 -9.9 -9.999 -99.9 -99.99 -9.99
2019/08/20 01:36 EDT    3.43   3.93    7  278    9  76.8  77.7 1016.7 -9.9 -9.999 -99.9 -99.99 -9.99
2019/08/20 01:42 EDT    3.33   3.81    6  273    9  76.5  77.7 1016.7 -9.9 -9.999 -99.9 -99.99 -9.99
2019/08/20 01:48 EDT    3.21   3.71    5  277    9  76.5  77.7 1016.8 -9.9 -9.999 -99.9 -99.99 -9.99
2019/08/20 01:54 EDT    3.10   3.61    7  276    9  76.5  77.7 1016.8 -9.9 -9.999 -99.9 -99.99 -9.99
2019/08/20 02:00 EDT    2.99   3.52    8  271   10  76.3  77.7 1016.8 -9.9 -9.999 -99.9 -99.99 -9.99
2019/08/20 02:06 EDT    2.87   3.38    7  271   10  76.3  77.7 1016.8 -9.9 -9.999 -99.9 -99.99 -9.99
2019/08/20 02:12 EDT    2.76   3.24    8  267   10  76.1  77.7 1016.8 -9.9 -9.999 -99.9 -99.99 -9.99
2019/08/20 02:18 EDT    2.64   3.18    7  266    9  76.1  77.7 1016.8 -9.9 -9.999 -99.9 -99.99 -9.99
2019/08/20 02:24 EDT    2.53   3.03    5  277    9  76.1  77.7 1016.8 -9.9 -9.999 -99.9 -99.99 -9.99
2019/08/20 02:30 EDT    2.42   2.89    6  275    8  76.3  77.7 1016.8 -9.9 -9.999 -99.9 -99.99 -9.99
2019/08/20 02:36 EDT    2.30   2.76    6  274    8  76.1  77.5 1016.8 -9.9 -9.999 -99.9 -99.99 -9.99
2019/08/20 02:42 EDT    2.19   2.67    6  278    8  76.1  77.5 1016.8 -9.9 -9.999 -99.9 -99.99 -9.99
2019/08/20 02:48 EDT    2.09   2.61    6  274    7  76.1  77.5 1016.8 -9.9 -9.999 -99.9 -99.99 -9.99
2019/08/20 02:54 EDT    1.98   2.52    5  275    7  76.1  77.5 1016.8 -9.9 -9.999 -99.9 -99.99 -9.99
2019/08/20 03:00 EDT    1.88   2.39    4  275    7  76.1  77.5 1016.9 -9.9 -9.999 -99.9 -99.99 -9.99
2019/08/20 03:06 EDT    1.78   2.36    4  279    7  76.3  77.5 1016.9 -9.9 -9.999 -99.9 -99.99 -9.99
2019/08/20 03:12 EDT    1.68   2.27    4  279    7  76.3  77.5 1016.9 -9.9 -9.999 -99.9 -99.99 -9.99
2019/08/20 03:18 EDT    1.58   2.20    5  279    7  76.3  77.5 1016.9 -9.9 -9.999 -99.9 -99.99 -9.99
2019/08/20 03:24 EDT    1.49   2.12    4  276    7  76.3  77.5 1016.9 -9.9 -9.999 -99.9 -99.99 -9.99
2019/08/20 03:30 EDT    1.40   2.05    6  284    8  76.5  77.5 1016.8 -9.9 -9.999 -99.9 -99.99 -9.99
2019/08/20 03:36 EDT    1.32   1.94    5  279    8  76.5  77.5 1016.9 -9.9 -9.999 -99.9 -99.99 -9.99
2019/08/20 03:42 EDT    1.24   1.85    4  283    7  76.5  77.5 1016.8 -9.9 -9.999 -99.9 -99.99 -9.99
2019/08/20 03:48 EDT    1.16   1.75    5  280    6  76.5  77.5 1016.8 -9.9 -9.999 -99.9 -99.99 -9.99
2019/08/20 03:54 EDT    1.09   1.66    3  279    6  76.3  77.5 1016.8 -9.9 -9.999 -99.9 -99.99 -9.99
2019/08/20 04:00 EDT    1.02   1.58    3  280    4  76.3  77.5 1016.9 -9.9 -9.999 -99.9 -99.99 -9.99
2019/08/20 04:06 EDT    0.95   1.51    3  281    4  76.3  77.5 1016.9 -9.9 -9.999 -99.9 -99.99 -9.99
2019/08/20 04:12 EDT    0.89   1.45    5  288    7  76.3  77.5 1017.0 -9.9 -9.999 -99.9 -99.99 -9.99
2019/08/20 04:18 EDT    0.83   1.38    6  280    9  76.5  77.5 1017.0 -9.9 -9.999 -99.9 -99.99 -9.99
2019/08/20 04:24 EDT    0.78   1.31    6  278    8  76.3  77.5 1017.2 -9.9 -9.999 -99.9 -99.99 -9.99
2019/08/20 04:30 EDT    0.73   1.25    6  275    8  76.1  77.5 1017.4 -9.9 -9.999 -99.9 -99.99 -9.99
2019/08/20 04:36 EDT    0.69   1.21    5  280    7  76.1  77.5 1017.4 -9.9 -9.999 -99.9 -99.99 -9.99
2019/08/20 04:42 EDT    0.65   1.15    5  287    7  76.3  77.5 1017.5 -9.9 -9.999 -99.9 -99.99 -9.99
2019/08/20 04:48 EDT    0.61   1.09    5  283    8  76.3  77.5 1017.6 -9.9 -9.999 -99.9 -99.99 -9.99
2019/08/20 04:54 EDT    0.58   1.03    7  294    8  76.3  77.5 1017.6 -9.9 -9.999 -99.9 -99.99 -9.99
2019/08/20 05:00 EDT    0.55   0.97    8  307    9  76.3  77.5 1017.6 -9.9 -9.999 -99.9 -99.99 -9.99
2019/08/20 05:06 EDT    0.53   0.96    7  313    8  76.3  77.5 1017.7 -9.9 -9.999 -99.9 -99.99 -9.99
2019/08/20 05:12 EDT    0.51   0.90    6  314    7  76.1  77.5 1017.7 -9.9 -9.999 -99.9 -99.99 -9.99
2019/08/20 05:18 EDT    0.50   0.85    4  310    5  76.1  77.5 1017.7 -9.9 -9.999 -99.9 -99.99 -9.99
2019/08/20 05:24 EDT    0.50   0.84    4  320    5  76.1  77.5 1017.8 -9.9 -9.999 -99.9 -99.99 -9.99
2019/08/20 05:30 EDT    0.50   0.83    4  317    4  75.6  77.5 1017.7 -9.9 -9.999 -99.9 -99.99 -9.99
2019/08/20 05:36 EDT    0.50   0.83    4  305    4  75.6  77.5 1017.9 -9.9 -9.999 -99.9 -99.99 -9.99
2019/08/20 05:42 EDT    0.51   0.84    4  318    4  75.6  77.5 1018.1 -9.9 -9.999 -99.9 -99.99 -9.99
2019/08/20 05:48 EDT    0.53   0.83    4  333    5  75.4  77.5 1018.2 -9.9 -9.999 -99.9 -99.99 -9.99
2019/08/20 05:54 EDT    0.55   0.85    4  325    5  75.4  77.5 1018.3 -9.9 -9.999 -99.9 -99.99 -9.99
2019/08/20 06:00 EDT    0.58   0.87    3  317    4  75.4  77.5 1018.4 -9.9 -9.999 -99.9 -99.99 -9.99
2019/08/20 06:06 EDT    0.62   0.88    3  322    4  75.6  77.5 1018.5 -9.9 -9.999 -99.9 -99.99 -9.99
2019/08/20 06:12 EDT    0.66   0.92    3  333    4  75.6  77.5 1018.6 -9.9 -9.999 -99.9 -99.99 -9.99
2019/08/20 06:18 EDT    0.71   0.96    4  334    5  75.6  77.5 1018.7 -9.9 -9.999 -99.9 -99.99 -9.99
2019/08/20 06:24 EDT    0.77   1.02    4  350    5  75.7  77.5 1018.7 -9.9 -9.999 -99.9 -99.99 -9.99
2019/08/20 06:30 EDT    0.83   1.07    3    3    5  75.6  77.5 1018.8 -9.9 -9.999 -99.9 -99.99 -9.99
2019/08/20 06:36 EDT    0.89   1.14    4   10    6  75.4  77.5 1018.8 -9.9 -9.999 -99.9 -99.99 -9.99
2019/08/20 06:42 EDT    0.97   1.23    4    9    6  75.7  77.5 1018.9 -9.9 -9.999 -99.9 -99.99 -9.99
2019/08/20 06:48 EDT    1.04   1.33    4   26    5  76.5  77.5 1019.0 -9.9 -9.999 -99.9 -99.99 -9.99
2019/08/20 06:54 EDT    1.13   1.44    3   29    5  76.5  77.5 1019.1 -9.9 -9.999 -99.9 -99.99 -9.99
2019/08/20 07:00 EDT    1.22   1.54    4   44    5  76.6  77.5 1019.1 -9.9 -9.999 -99.9 -99.99 -9.99
2019/08/20 07:06 EDT    1.31   1.65    4   46    6  76.6  77.5 1019.2 -9.9 -9.999 -99.9 -99.99 -9.99
2019/08/20 07:12 EDT    1.41   1.78    4   64    6  76.8  77.5 1019.3 -9.9 -9.999 -99.9 -99.99 -9.99
2019/08/20 07:18 EDT    1.51   1.90    5   62    6  77.0  77.5 1019.3 -9.9 -9.999 -99.9 -99.99 -9.99
2019/08/20 07:24 EDT    1.62   2.00    4   58    6  77.0  77.5 1019.4 -9.9 -9.999 -99.9 -99.99 -9.99
2019/08/20 07:30 EDT    1.73   2.11    6   55    9  77.0  77.5 1019.4 -9.9 -9.999 -99.9 -99.99 -9.99
2019/08/20 07:36 EDT    1.84   2.22    7   56    9  77.0  77.5 1019.3 -9.9 -9.999 -99.9 -99.99 -9.99
2019/08/20 07:42 EDT    1.95   2.31    7   58   10  77.0  77.4 1019.3 -9.9 -9.999 -99.9 -99.99 -9.99
2019/08/20 07:48 EDT    2.07   2.44    7   60    9  76.8  77.4 1019.3 -9.9 -9.999 -99.9 -99.99 -9.99
2019/08/20 07:54 EDT    2.18   2.53    6   61    9  77.0  77.4 1019.3 -9.9 -9.999 -99.9 -99.99 -9.99
2019/08/20 08:00 EDT    2.30   2.63    7   60    9  77.2  77.4 1019.3 -9.9 -9.999 -99.9 -99.99 -9.99
2019/08/20 08:06 EDT    2.42   2.75    6   63    8  77.4  77.4 1019.4 -9.9 -9.999 -99.9 -99.99 -9.99
2019/08/20 08:12 EDT    2.54   2.88    7   59    9  77.5  77.4 1019.4 -9.9 -9.999 -99.9 -99.99 -9.99
2019/08/20 08:18 EDT    2.65   3.01    7   59   10  77.5  77.4 1019.4 -9.9 -9.999 -99.9 -99.99 -9.99
2019/08/20 08:24 EDT    2.77   3.12    7   59   10  77.5  77.4 1019.5 -9.9 -9.999 -99.9 -99.99 -9.99
2019/08/20 08:30 EDT    2.88   3.25    7   58   10  77.5  77.4 1019.6 -9.9 -9.999 -99.9 -99.99 -9.99
2019/08/20 08:36 EDT    2.99   3.39    6   60   10  77.9  77.4 1019.6 -9.9 -9.999 -99.9 -99.99 -9.99
2019/08/20 08:42 EDT    3.10   3.50    6   62    8  78.3  77.4 1019.6 -9.9 -9.999 -99.9 -99.99 -9.99
2019/08/20 08:48 EDT    3.20   3.61    6   66   10  78.3  77.4 1019.7 -9.9 -9.999 -99.9 -99.99 -9.99
2019/08/20 08:54 EDT    3.31   3.73    4   63    8  77.9  77.4 1019.7 -9.9 -9.999 -99.9 -99.99 -9.99
2019/08/20 09:00 EDT    3.41   3.81    6   65    7  78.4  77.4 1019.7 -9.9 -9.999 -99.9 -99.99 -9.99
2019/08/20 09:06 EDT    3.50   3.91    5   86    7  78.1  77.4 1019.7 -9.9 -9.999 -99.9 -99.99 -9.99
2019/08/20 09:12 EDT    3.59   4.00    5   81    8  77.7  77.4 1019.7 -9.9 -9.999 -99.9 -99.99 -9.99
2019/08/20 09:18 EDT    3.68   4.06    7   77    9  77.9  77.5 1019.7 -9.9 -9.999 -99.9 -99.99 -9.99
2019/08/20 09:24 EDT    3.76   4.14    6   85    9  77.9  77.4 1019.7 -9.9 -9.999 -99.9 -99.99 -9.99
2019/08/20 09:30 EDT    3.84   4.21    5   75    7  78.3  77.4 1019.8 -9.9 -9.999 -99.9 -99.99 -9.99
2019/08/20 09:36 EDT    3.92   4.27    5   91    8  78.3  77.4 1019.8 -9.9 -9.999 -99.9 -99.99 -9.99
2019/08/20 09:42 EDT    3.99   4.34    5   87    7  78.3  77.4 1019.8 -9.9 -9.999 -99.9 -99.99 -9.99
2019/08/20 09:48 EDT    4.06   4.41    4  105    8  78.4  77.5 1020.0 -9.9 -9.999 -99.9 -99.99 -9.99
2019/08/20 09:54 EDT    4.12   4.48    6  113    7  78.8  77.5 1019.9 -9.9 -9.999 -99.9 -99.99 -9.99
2019/08/20 10:00 EDT    4.18   4.52    4   96    6  78.4  77.4 1019.9 -9.9 -9.999 -99.9 -99.99 -9.99
2019/08/20 10:06 EDT    4.24   4.60    6  117    7  78.8  77.4 1020.0 -9.9 -9.999 -99.9 -99.99 -9.99
2019/08/20 10:12 EDT    4.29   4.66    6  110    8  78.4  77.4 1019.9 -9.9 -9.999 -99.9 -99.99 -9.99
2019/08/20 10:18 EDT    4.34   4.70    4  118    7  78.4  77.4 1019.9 -9.9 -9.999 -99.9 -99.99 -9.99
2019/08/20 10:24 EDT    4.38   4.75    5  109    7  78.6  77.5 1019.9 -9.9 -9.999 -99.9 -99.99 -9.99
2019/08/20 10:30 EDT    4.42   4.79    5   99    7  78.8  77.5 1019.9 -9.9 -9.999 -99.9 -99.99 -9.99
2019/08/20 10:36 EDT    4.46   4.83    5  128    7  78.4  77.5 1019.9 -9.9 -9.999 -99.9 -99.99 -9.99
2019/08/20 10:42 EDT    4.50   4.88    5  109    7  78.3  77.7 1019.8 -9.9 -9.999 -99.9 -99.99 -9.99
2019/08/20 10:48 EDT    4.53   4.92    6  126    7  78.4  77.7 1019.9 -9.9 -9.999 -99.9 -99.99 -9.99
2019/08/20 10:54 EDT    4.56   4.94    5  116    7  78.4  77.7 1019.9 -9.9 -9.999 -99.9 -99.99 -9.99
2019/08/20 11:00 EDT    4.59   5.02    5   99    7  78.4  77.7 1020.0 -9.9 -9.999 -99.9 -99.99 -9.99
2019/08/20 11:06 EDT    4.61   5.04    5  118    8  78.6  77.7 1019.9 -9.9 -9.999 -99.9 -99.99 -9.99
2019/08/20 11:12 EDT    4.63   5.08    5  119    7  78.8  77.7 1019.9 -9.9 -9.999 -99.9 -99.99 -9.99
2019/08/20 11:18 EDT    4.64   5.11    4  122    8  79.0  77.7 1020.0 -9.9 -9.999 -99.9 -99.99 -9.99
2019/08/20 11:24 EDT    4.66   5.13    4  132    6  79.2  77.7 1020.0 -9.9 -9.999 -99.9 -99.99 -9.99
2019/08/20 11:30 EDT    4.67   5.16    5  110    7  79.3  77.7 1020.0 -9.9 -9.999 -99.9 -99.99 -9.99
2019/08/20 11:36 EDT    4.67   5.16    3  131    7  79.3  77.7 1019.9 -9.9 -9.999 -99.9 -99.99 -9.99
2019/08/20 11:42 EDT    4.67   5.15    5  127    7  79.7  77.5 1019.9 -9.9 -9.999 -99.9 -99.99 -9.99
2019/08/20 11:48 EDT    4.67   5.16    5  134    7  79.7  77.4 1019.8 -9.9 -9.999 -99.9 -99.99 -9.99
2019/08/20 11:54 EDT    4.66   5.15    5  123    8  79.5  77.4 1019.8 -9.9 -9.999 -99.9 -99.99 -9.99
2019/08/20 12:00 EDT    4.65   5.12    6  144    7  79.9  77.0 1019.7 -9.9 -9.999 -99.9 -99.99 -9.99
2019/08/20 12:06 EDT    4.64   5.10    6  147    8  79.5  77.0 1019.8 -9.9 -9.999 -99.9 -99.99 -9.99
2019/08/20 12:12 EDT    4.62   5.09    6  140    8  79.7  77.0 1019.7 -9.9 -9.999 -99.9 -99.99 -9.99
2019/08/20 12:18 EDT    4.60   5.06    6  131    9  79.7  76.8 1019.7 -9.9 -9.999 -99.9 -99.99 -9.99
2019/08/20 12:24 EDT    4.57   5.04    4  127    9  79.9  77.0 1019.7 -9.9 -9.999 -99.9 -99.99 -9.99
2019/08/20 12:30 EDT    4.53   5.00    6  155    8  80.2  77.0 1019.6 -9.9 -9.999 -99.9 -99.99 -9.99
2019/08/20 12:36 EDT    4.50   4.98    6  147    9  79.9  76.8 1019.6 -9.9 -9.999 -99.9 -99.99 -9.99
2019/08/20 12:42 EDT    4.45   4.91    8  177    9  79.9  76.8 1019.6 -9.9 -9.999 -99.9 -99.99 -9.99
2019/08/20 12:48 EDT    4.40   4.89   11  180   11  79.0  76.8 1019.6 -9.9 -9.999 -99.9 -99.99 -9.99
2019/08/20 12:54 EDT    4.35   4.82   10  182   12  78.8  77.0 1019.5 -9.9 -9.999 -99.9 -99.99 -9.99
2019/08/20 13:00 EDT    4.29   4.74   10  180   11  79.0  76.8 1019.5 -9.9 -9.999 -99.9 -99.99 -9.99
2019/08/20 13:06 EDT    4.23   4.67   10  177   12  79.0  77.0 1019.4 -9.9 -9.999 -99.9 -99.99 -9.99
2019/08/20 13:12 EDT    4.16   4.60   10  171   12  79.2  77.0 1019.4 -9.9 -9.999 -99.9 -99.99 -9.99
2019/08/20 13:18 EDT    4.09   4.50    8  163   13  79.5  77.4 1019.4 -9.9 -9.999 -99.9 -99.99 -9.99
2019/08/20 13:24 EDT    4.01   4.43    8  165   11  79.7  77.9 1019.3 -9.9 -9.999 -99.9 -99.99 -9.99
2019/08/20 13:30 EDT    3.93   4.34    8  164   13  79.5  77.9 1019.4 -9.9 -9.999 -99.9 -99.99 -9.99
2019/08/20 13:36 EDT    3.85   4.25    7  159   12  79.5  77.9 1019.3 -9.9 -9.999 -99.9 -99.99 -9.99
2019/08/20 13:42 EDT    3.76   4.15    7  151   11  80.1  78.1 1019.4 -9.9 -9.999 -99.9 -99.99 -9.99
2019/08/20 13:48 EDT    3.67   4.06    8  153    9  80.2  78.3 1019.4 -9.9 -9.999 -99.9 -99.99 -9.99
2019/08/20 13:54 EDT    3.58   3.99    8  167   10  80.2  78.1 1019.4 -9.9 -9.999 -99.9 -99.99 -9.99
2019/08/20 14:00 EDT    3.48   3.90    9  174   11  79.9  78.1 1019.5 -9.9 -9.999 -99.9 -99.99 -9.99
2019/08/20 14:06 EDT    3.38   3.81    9  171   11  80.1  78.1 1019.5 -9.9 -9.999 -99.9 -99.99 -9.99
2019/08/20 14:12 EDT    3.28   3.70    9  173   11  79.5  78.3 1019.4 -9.9 -9.999 -99.9 -99.99 -9.99
2019/08/20 14:18 EDT    3.18   3.62    9  177   11  79.5  78.3 1019.4 -9.9 -9.999 -99.9 -99.99 -9.99
2019/08/20 14:24 EDT    3.08   3.52   10  180   11  79.9  78.4 1019.3 -9.9 -9.999 -99.9 -99.99 -9.99
2019/08/20 14:30 EDT    2.98   3.42    9  176   11  79.9  78.4 1019.3 -9.9 -9.999 -99.9 -99.99 -9.99
2019/08/20 14:36 EDT    2.88   3.31    7  163   10  80.1  78.6 1019.3 -9.9 -9.999 -99.9 -99.99 -9.99
2019/08/20 14:42 EDT    2.78   3.22    9  173   11  80.4  78.6 1019.3 -9.9 -9.999 -99.9 -99.99 -9.99
2019/08/20 14:48 EDT    2.68   3.12   10  175   11  80.2  78.8 1019.3 -9.9 -9.999 -99.9 -99.99 -9.99
2019/08/20 14:54 EDT    2.58   3.01    9  170   10  80.2  79.0 1019.3 -9.9 -9.999 -99.9 -99.99 -9.99
2019/08/20 15:00 EDT    2.48   2.92    9  174    9  80.2  78.8 1019.3 -9.9 -9.999 -99.9 -99.99 -9.99
2019/08/20 15:06 EDT    2.39   2.83    8  177   10  80.2  79.0 1019.1 -9.9 -9.999 -99.9 -99.99 -9.99
2019/08/20 15:12 EDT    2.29   2.71    9  178   10  80.4  78.8 1019.0 -9.9 -9.999 -99.9 -99.99 -9.99
2019/08/20 15:18 EDT    2.20   2.64    9  179   10  80.4  79.0 1019.0 -9.9 -9.999 -99.9 -99.99 -9.99
2019/08/20 15:24 EDT    2.12   2.55    9  174   10  80.6  79.0 1019.0 -9.9 -9.999 -99.9 -99.99 -9.99
2019/08/20 15:30 EDT    2.03   2.45    9  174   10  80.6  79.0 1018.9 -9.9 -9.999 -99.9 -99.99 -9.99
2019/08/20 15:36 EDT    1.95   2.37    9  173   10  80.8  79.0 1018.8 -9.9 -9.999 -99.9 -99.99 -9.99
2019/08/20 15:42 EDT    1.87   2.30   10  174   11  80.8  79.0 1018.7 -9.9 -9.999 -99.9 -99.99 -9.99
2019/08/20 15:48 EDT    1.79   2.19   10  175   11  81.0  79.0 1018.6 -9.9 -9.999 -99.9 -99.99 -9.99
2019/08/20 15:54 EDT    1.72   2.12   10  176   12  81.1  79.0 1018.4 -9.9 -9.999 -99.9 -99.99 -9.99
2019/08/20 16:00 EDT    1.65   2.03    8  161   12  81.1  79.2 1018.3 -9.9 -9.999 -99.9 -99.99 -9.99
2019/08/20 16:06 EDT    1.58   1.95    9  142   11  81.9  79.2 1018.3 -9.9 -9.999 -99.9 -99.99 -9.99
2019/08/20 16:12 EDT    1.52   1.87    8  146   11  81.7  79.3 1018.3 -9.9 -9.999 -99.9 -99.99 -9.99
2019/08/20 16:18 EDT    1.46   1.78    9  143   11  81.7  79.3 1018.3 -9.9 -9.999 -99.9 -99.99 -9.99
2019/08/20 16:24 EDT    1.40   1.71    9  144   12  81.7  79.3 1018.2 -9.9 -9.999 -99.9 -99.99 -9.99
2019/08/20 16:30 EDT    1.35   1.66    9  149   13  81.5  79.5 1018.3 -9.9 -9.999 -99.9 -99.99 -9.99
2019/08/20 16:36 EDT    1.30   1.58   11  161   14  81.7  79.7 1018.2 -9.9 -9.999 -99.9 -99.99 -9.99
2019/08/20 16:42 EDT    1.25   1.53   10  151   14  81.3  79.7 1018.1 -9.9 -9.999 -99.9 -99.99 -9.99
2019/08/20 16:48 EDT    1.21   1.47    9  155   12  81.3  79.7 1018.3 -9.9 -9.999 -99.9 -99.99 -9.99
2019/08/20 16:54 EDT    1.17   1.41    7  152   12  81.3  79.9 1018.3 -9.9 -9.999 -99.9 -99.99 -9.99
2019/08/20 17:00 EDT    1.14 -99.99 -999 -999 -999 -99.9 -99.9 -999.9 -9.9 -9.999 -99.9 -99.99 -9.99

Revised: 08/08/2018
NOAA / National Ocean Service
Web site owner: Center for Operational Oceanographic Products and Services